IBE0281 LEMD-RJAA
Flight info
| Callsign | IBE0281 |
|---|---|
| Flight time | N/A |
| Altitude | 36000 |
| Route | PINAR N870 BCN N725 OSPOK DCT NOLVI DCT ORKUM DCT ELSAG DCT ALG DCT XOLTA DCT RAMAP DCT NISVA Q13 UDROS UN743 GAKSU UT310 SIN UM860 CRM UM11 TBN UG261 NOLGA DCT BARAD M747 SUBUT T916 LEYLA N161 GASBI/K0898F360 N161 SARIN/K0893S1095 A368 FKG W188 LIKMI W270 DKO W69 HUR B339 LADIX W34 VAPGU W100 MUDOT DCT UNSEK A326 DONVO G597 AGAVO/N0481F360 Y644 EGOBA Y697 LANAT Y51 SAMON Y517 ESKAS Y303 ENTAK Y30 SWAMP |
| Aircraft | A359/H-SDE2E3GHIJ1J3J4J5LM1ORWXY/LB1D1 |
Departure
| Time | N/A |
|---|---|
| Airport | Adolfo Suárez Madrid–Barajas Airport (LEMD) |
Arrival
| Time | 2026-05-05 05:33 |
|---|---|
| Airport | Narita International Airport (RJAA) |
| Time | Latitude | Longitude | Altitude | Speed | Heading |
|---|---|---|---|---|---|
| 2026-05-04 17:42 | 42.92686 | 17.17396 | 36117 ft | 500 kts | 75° |
| 2026-05-04 17:42 | 42.93380 | 17.22046 | 36103 ft | 500 kts | 75° |
| 2026-05-04 17:43 | 42.94764 | 17.31348 | 36109 ft | 499 kts | 76° |
| 2026-05-04 17:43 | 42.96128 | 17.40572 | 36125 ft | 499 kts | 75° |
| 2026-05-04 17:44 | 42.97494 | 17.49866 | 36110 ft | 499 kts | 75° |
| 2026-05-04 17:44 | 42.98850 | 17.59154 | 36110 ft | 499 kts | 75° |
| 2026-05-04 17:45 | 43.00200 | 17.68445 | 36120 ft | 499 kts | 75° |
| 2026-05-04 17:45 | 43.01541 | 17.77737 | 36125 ft | 499 kts | 75° |
| 2026-05-04 17:46 | 43.02873 | 17.87019 | 36110 ft | 497 kts | 75° |
| 2026-05-04 17:46 | 43.04193 | 17.96283 | 36114 ft | 496 kts | 76° |
| 2026-05-04 17:47 | 43.05507 | 18.05551 | 36117 ft | 496 kts | 76° |
| 2026-05-04 17:47 | 43.06814 | 18.14821 | 36113 ft | 496 kts | 76° |
| 2026-05-04 17:48 | 43.08113 | 18.24103 | 36117 ft | 497 kts | 76° |
| 2026-05-04 17:48 | 43.09406 | 18.33395 | 36117 ft | 497 kts | 76° |
| 2026-05-04 17:49 | 43.10681 | 18.42616 | 36128 ft | 497 kts | 76° |
| 2026-05-04 17:49 | 43.11958 | 18.51916 | 36102 ft | 496 kts | 76° |
| 2026-05-04 17:50 | 43.13227 | 18.61210 | 36098 ft | 496 kts | 76° |
| 2026-05-04 17:50 | 43.14486 | 18.70480 | 36092 ft | 496 kts | 76° |
| 2026-05-04 17:51 | 43.15739 | 18.79773 | 36092 ft | 495 kts | 76° |
| 2026-05-04 17:51 | 43.16972 | 18.88982 | 36078 ft | 494 kts | 76° |
| 2026-05-04 17:52 | 43.18203 | 18.98235 | 36079 ft | 493 kts | 76° |
| 2026-05-04 17:52 | 43.19427 | 19.07484 | 36078 ft | 493 kts | 76° |
| 2026-05-04 17:53 | 43.20642 | 19.16734 | 36073 ft | 493 kts | 77° |
| 2026-05-04 17:53 | 43.21849 | 19.25990 | 36071 ft | 492 kts | 77° |
| 2026-05-04 17:54 | 43.23046 | 19.35224 | 36075 ft | 492 kts | 77° |
| 2026-05-04 17:54 | 43.24236 | 19.44461 | 36076 ft | 492 kts | 77° |
| 2026-05-04 17:55 | 43.25410 | 19.53633 | 36074 ft | 490 kts | 77° |
| 2026-05-04 17:55 | 43.26579 | 19.62837 | 36071 ft | 489 kts | 77° |
| 2026-05-04 17:56 | 43.27742 | 19.72040 | 36089 ft | 489 kts | 77° |
| 2026-05-04 17:56 | 43.28896 | 19.81251 | 36093 ft | 489 kts | 77° |
| 2026-05-04 17:57 | 43.30043 | 19.90459 | 36087 ft | 488 kts | 77° |
| 2026-05-04 17:57 | 43.31173 | 19.99589 | 36094 ft | 487 kts | 77° |
| 2026-05-04 17:58 | 43.32301 | 20.08769 | 36092 ft | 487 kts | 77° |
| 2026-05-04 17:58 | 43.33422 | 20.17949 | 36096 ft | 487 kts | 77° |
| 2026-05-04 17:59 | 43.34537 | 20.27142 | 36107 ft | 487 kts | 77° |
| 2026-05-04 18:00 | 43.36188 | 20.40898 | 36101 ft | 486 kts | 77° |
| 2026-05-04 18:00 | 43.37282 | 20.50086 | 36101 ft | 486 kts | 77° |
| 2026-05-04 18:01 | 43.38368 | 20.59262 | 36100 ft | 486 kts | 77° |
| 2026-05-04 18:01 | 43.39446 | 20.68443 | 36114 ft | 487 kts | 77° |
| 2026-05-04 18:02 | 43.41040 | 20.82243 | 36105 ft | 488 kts | 79° |
| 2026-05-04 18:02 | 43.41005 | 20.91613 | 36103 ft | 495 kts | 96° |
| 2026-05-04 18:03 | 43.39304 | 21.00829 | 36097 ft | 499 kts | 103° |
| 2026-05-04 18:03 | 43.37244 | 21.09897 | 36097 ft | 499 kts | 105° |
| 2026-05-04 18:04 | 43.35132 | 21.18976 | 36094 ft | 498 kts | 104° |
| 2026-05-04 18:05 | 43.32005 | 21.32593 | 36089 ft | 498 kts | 104° |
| 2026-05-04 18:05 | 43.29927 | 21.41684 | 36089 ft | 498 kts | 104° |
| 2026-05-04 18:06 | 43.26800 | 21.55292 | 36088 ft | 498 kts | 104° |
| 2026-05-04 18:06 | 43.24720 | 21.64292 | 36077 ft | 498 kts | 104° |
| 2026-05-04 18:07 | 43.22622 | 21.73332 | 36077 ft | 498 kts | 105° |
| 2026-05-04 18:07 | 43.20513 | 21.82384 | 36076 ft | 498 kts | 105° |
| 2026-05-04 18:08 | 43.18397 | 21.91426 | 36078 ft | 498 kts | 105° |
| 2026-05-04 18:08 | 43.16278 | 22.00448 | 36079 ft | 498 kts | 105° |
| 2026-05-04 18:09 | 43.12013 | 22.18495 | 36089 ft | 497 kts | 105° |
| 2026-05-04 18:10 | 43.09871 | 22.27501 | 36093 ft | 497 kts | 105° |
| 2026-05-04 18:10 | 43.08085 | 22.34987 | 36101 ft | 498 kts | 105° |
| 2026-05-04 18:11 | 43.05933 | 22.43972 | 36103 ft | 496 kts | 106° |
| 2026-05-04 18:11 | 43.03429 | 22.54379 | 36102 ft | 495 kts | 106° |
| 2026-05-04 18:12 | 43.01618 | 22.61877 | 36101 ft | 495 kts | 106° |
| 2026-05-04 18:12 | 42.99455 | 22.70809 | 36112 ft | 495 kts | 107° |
| 2026-05-04 18:13 | 42.97643 | 22.79775 | 36106 ft | 491 kts | 96° |
| 2026-05-04 18:14 | 42.97287 | 22.93755 | 36106 ft | 489 kts | 88° |
| 2026-05-04 18:14 | 42.97354 | 23.02981 | 36107 ft | 489 kts | 87° |
| 2026-05-04 18:15 | 42.97450 | 23.21585 | 36236 ft | 489 kts | 88° |
| 2026-05-04 18:15 | 42.97458 | 23.26211 | 36458 ft | 487 kts | 88° |
| 2026-05-04 18:16 | 42.97463 | 23.30822 | 36616 ft | 486 kts | 88° |
| 2026-05-04 18:16 | 42.97466 | 23.35429 | 36753 ft | 485 kts | 88° |
| 2026-05-04 18:16 | 42.97469 | 23.40052 | 36856 ft | 485 kts | 88° |
| 2026-05-04 18:17 | 42.97468 | 23.49261 | 37089 ft | 484 kts | 88° |
| 2026-05-04 18:17 | 42.97466 | 23.53865 | 37109 ft | 486 kts | 88° |
| 2026-05-04 18:18 | 42.97447 | 23.67792 | 37106 ft | 491 kts | 88° |
| 2026-05-04 18:18 | 42.97424 | 23.77123 | 37108 ft | 491 kts | 88° |
| 2026-05-04 18:19 | 42.97376 | 23.91032 | 37111 ft | 490 kts | 88° |
| 2026-05-04 18:19 | 42.97336 | 24.00317 | 37110 ft | 489 kts | 89° |
| 2026-05-04 18:20 | 42.97287 | 24.09606 | 37115 ft | 489 kts | 89° |
| 2026-05-04 18:20 | 42.97231 | 24.18895 | 37112 ft | 489 kts | 89° |
| 2026-05-04 18:21 | 42.97168 | 24.28171 | 37099 ft | 489 kts | 89° |
| 2026-05-04 18:21 | 42.97097 | 24.37450 | 37113 ft | 489 kts | 89° |
| 2026-05-04 18:22 | 42.97019 | 24.46727 | 37111 ft | 489 kts | 89° |
| 2026-05-04 18:22 | 42.96933 | 24.56007 | 37108 ft | 489 kts | 89° |
| 2026-05-04 18:23 | 42.96839 | 24.65291 | 37108 ft | 489 kts | 89° |
| 2026-05-04 18:23 | 42.96737 | 24.74580 | 37097 ft | 489 kts | 89° |
| 2026-05-04 18:24 | 42.96630 | 24.83794 | 37083 ft | 489 kts | 89° |
| 2026-05-04 18:24 | 42.96513 | 24.93143 | 37086 ft | 489 kts | 89° |
| 2026-05-04 18:25 | 42.96391 | 25.02361 | 37084 ft | 488 kts | 89° |
| 2026-05-04 18:25 | 42.96260 | 25.11628 | 37079 ft | 488 kts | 89° |
| 2026-05-04 18:26 | 42.96121 | 25.20890 | 37076 ft | 488 kts | 89° |
| 2026-05-04 18:26 | 42.95976 | 25.30148 | 37082 ft | 488 kts | 89° |
| 2026-05-04 18:27 | 42.95822 | 25.39417 | 37061 ft | 488 kts | 89° |
| 2026-05-04 18:27 | 42.95662 | 25.48671 | 37065 ft | 488 kts | 89° |
| 2026-05-04 18:28 | 42.95492 | 25.57950 | 37056 ft | 488 kts | 89° |
| 2026-05-04 18:28 | 42.95318 | 25.67162 | 37056 ft | 488 kts | 90° |
| 2026-05-04 18:29 | 42.95136 | 25.76420 | 37055 ft | 488 kts | 89° |
| 2026-05-04 18:29 | 42.94946 | 25.85683 | 37057 ft | 488 kts | 90° |
| 2026-05-04 18:30 | 42.94646 | 25.99563 | 37055 ft | 488 kts | 90° |
| 2026-05-04 18:31 | 42.94437 | 26.08824 | 37054 ft | 488 kts | 90° |
| 2026-05-04 18:31 | 42.94222 | 26.18023 | 37057 ft | 488 kts | 90° |
| 2026-05-04 18:32 | 42.93998 | 26.27258 | 37048 ft | 487 kts | 90° |
| 2026-05-04 18:32 | 42.93768 | 26.36501 | 37047 ft | 487 kts | 90° |
| 2026-05-04 18:33 | 42.93530 | 26.45738 | 37051 ft | 487 kts | 90° |
| 2026-05-04 18:33 | 42.93284 | 26.54968 | 37060 ft | 487 kts | 90° |
| 2026-05-04 18:34 | 42.93030 | 26.64202 | 37051 ft | 486 kts | 90° |
| 2026-05-04 18:34 | 42.92770 | 26.73416 | 37049 ft | 486 kts | 90° |
| 2026-05-04 18:35 | 42.92505 | 26.82564 | 37047 ft | 486 kts | 90° |
| 2026-05-04 18:35 | 42.92230 | 26.91781 | 37060 ft | 486 kts | 90° |
| 2026-05-04 18:36 | 42.91949 | 27.00970 | 37049 ft | 484 kts | 90° |
| 2026-05-04 18:36 | 42.91660 | 27.10153 | 37050 ft | 484 kts | 90° |
| 2026-05-04 18:37 | 42.91365 | 27.19321 | 37054 ft | 484 kts | 90° |
| 2026-05-04 18:37 | 42.91062 | 27.28498 | 37053 ft | 484 kts | 90° |
| 2026-05-04 18:38 | 42.90753 | 27.37621 | 37055 ft | 484 kts | 90° |
| 2026-05-04 18:38 | 42.90436 | 27.46774 | 37061 ft | 484 kts | 90° |
| 2026-05-04 18:39 | 42.90111 | 27.55940 | 37063 ft | 484 kts | 90° |
| 2026-05-04 18:39 | 42.89779 | 27.65119 | 37069 ft | 483 kts | 90° |
| 2026-05-04 18:40 | 42.89440 | 27.74267 | 37064 ft | 482 kts | 90° |
| 2026-05-04 18:40 | 42.89094 | 27.83403 | 37068 ft | 481 kts | 90° |
| 2026-05-04 18:41 | 42.88742 | 27.92513 | 37069 ft | 481 kts | 90° |
| 2026-05-04 18:41 | 42.88383 | 28.01638 | 37070 ft | 481 kts | 90° |
| 2026-05-04 18:42 | 42.87995 | 28.10751 | 37065 ft | 481 kts | 91° |
| 2026-05-04 18:42 | 42.87568 | 28.19780 | 37065 ft | 480 kts | 91° |
| 2026-05-04 18:43 | 42.87133 | 28.28860 | 37056 ft | 480 kts | 91° |
| 2026-05-04 18:43 | 42.86698 | 28.37936 | 37052 ft | 480 kts | 91° |
| 2026-05-04 18:44 | 42.86258 | 28.47021 | 37065 ft | 480 kts | 91° |
| 2026-05-04 18:44 | 42.85811 | 28.56116 | 37046 ft | 479 kts | 91° |
| 2026-05-04 18:45 | 42.85361 | 28.65119 | 37046 ft | 479 kts | 91° |
| 2026-05-04 18:45 | 42.84900 | 28.74197 | 37040 ft | 479 kts | 91° |
| 2026-05-04 18:46 | 42.84433 | 28.83246 | 37039 ft | 479 kts | 91° |
| 2026-05-04 18:46 | 42.83959 | 28.92292 | 37032 ft | 478 kts | 91° |
| 2026-05-04 18:47 | 42.83481 | 29.01263 | 37030 ft | 477 kts | 91° |
| 2026-05-04 18:47 | 42.82995 | 29.10285 | 37031 ft | 478 kts | 91° |
| 2026-05-04 18:48 | 42.82501 | 29.19304 | 37023 ft | 478 kts | 91° |
| 2026-05-04 18:48 | 42.81999 | 29.28338 | 37022 ft | 478 kts | 91° |
| 2026-05-04 18:49 | 42.81490 | 29.37359 | 37017 ft | 478 kts | 91° |
| 2026-05-04 18:49 | 42.80974 | 29.46393 | 37015 ft | 478 kts | 91° |
| 2026-05-04 18:50 | 42.80454 | 29.55370 | 37021 ft | 478 kts | 91° |
| 2026-05-04 18:50 | 42.79923 | 29.64403 | 37011 ft | 478 kts | 91° |
| 2026-05-04 18:51 | 42.79386 | 29.73423 | 37007 ft | 477 kts | 91° |
| 2026-05-04 18:51 | 42.78843 | 29.82431 | 37001 ft | 477 kts | 91° |
| 2026-05-04 18:52 | 42.78295 | 29.91392 | 36997 ft | 477 kts | 91° |
| 2026-05-04 18:52 | 42.77735 | 30.00440 | 37010 ft | 477 kts | 91° |
| 2026-05-04 18:53 | 42.77169 | 30.09452 | 36991 ft | 477 kts | 91° |
| 2026-05-04 18:53 | 42.76602 | 30.18385 | 36992 ft | 477 kts | 91° |
| 2026-05-04 18:54 | 42.76025 | 30.27363 | 36986 ft | 477 kts | 91° |
| 2026-05-04 18:54 | 42.75439 | 30.36362 | 36991 ft | 477 kts | 91° |
| 2026-05-04 18:55 | 42.74847 | 30.45331 | 36977 ft | 475 kts | 91° |
| 2026-05-04 18:55 | 42.73874 | 30.58724 | 36972 ft | 476 kts | 96° |
| 2026-05-04 18:56 | 42.72372 | 30.67545 | 36970 ft | 479 kts | 101° |
| 2026-05-04 18:56 | 42.70685 | 30.76239 | 36980 ft | 479 kts | 101° |
| 2026-05-04 18:57 | 42.68948 | 30.84981 | 36960 ft | 479 kts | 101° |
| 2026-05-04 18:57 | 42.67215 | 30.93721 | 36954 ft | 479 kts | 101° |
| 2026-05-04 18:58 | 42.65485 | 31.02458 | 36957 ft | 479 kts | 101° |
| 2026-05-04 18:58 | 42.63751 | 31.11190 | 36943 ft | 478 kts | 101° |
| 2026-05-04 18:59 | 42.62012 | 31.19907 | 36930 ft | 478 kts | 101° |
| 2026-05-04 18:59 | 42.60265 | 31.28622 | 36941 ft | 478 kts | 101° |
| 2026-05-04 19:00 | 42.58809 | 31.35859 | 36944 ft | 478 kts | 101° |
| 2026-05-04 19:00 | 42.57052 | 31.44557 | 36936 ft | 479 kts | 102° |
| 2026-05-04 19:01 | 42.55281 | 31.53287 | 36926 ft | 480 kts | 102° |
| 2026-05-04 19:01 | 42.53504 | 31.62006 | 36919 ft | 480 kts | 102° |
| 2026-05-04 19:02 | 42.51717 | 31.70734 | 36916 ft | 480 kts | 102° |
| 2026-05-04 19:02 | 42.49935 | 31.79410 | 36909 ft | 481 kts | 102° |
| 2026-05-04 19:03 | 42.48132 | 31.88150 | 36908 ft | 482 kts | 102° |
| 2026-05-04 19:03 | 42.46321 | 31.96888 | 36908 ft | 482 kts | 102° |
| 2026-05-04 19:04 | 42.44500 | 32.05637 | 36920 ft | 482 kts | 102° |
| 2026-05-04 19:04 | 42.42675 | 32.14365 | 36905 ft | 480 kts | 103° |
| 2026-05-04 19:05 | 42.40851 | 32.23056 | 36906 ft | 479 kts | 103° |
| 2026-05-04 19:05 | 42.39033 | 32.31681 | 36906 ft | 479 kts | 103° |
| 2026-05-04 19:06 | 42.37198 | 32.40352 | 36912 ft | 479 kts | 103° |
| 2026-05-04 19:06 | 42.35359 | 32.49005 | 36908 ft | 479 kts | 103° |
| 2026-05-04 19:07 | 42.33572 | 32.57678 | 36905 ft | 477 kts | 99° |
| 2026-05-04 19:07 | 42.32434 | 32.66477 | 36908 ft | 476 kts | 96° |
| 2026-05-04 19:08 | 42.31428 | 32.75324 | 36910 ft | 475 kts | 96° |
| 2026-05-04 19:08 | 42.30441 | 32.84150 | 36911 ft | 476 kts | 96° |
| 2026-05-04 19:09 | 42.29443 | 32.92939 | 36911 ft | 476 kts | 96° |
| 2026-05-04 19:09 | 42.28428 | 33.01761 | 36912 ft | 476 kts | 96° |
| 2026-05-04 19:10 | 42.27403 | 33.10579 | 36915 ft | 476 kts | 96° |
| 2026-05-04 19:10 | 42.26368 | 33.19430 | 36914 ft | 477 kts | 96° |
| 2026-05-04 19:11 | 42.25325 | 33.28281 | 36915 ft | 477 kts | 97° |
| 2026-05-04 19:11 | 42.24276 | 33.37134 | 36914 ft | 477 kts | 97° |
| 2026-05-04 19:12 | 42.22691 | 33.50385 | 36919 ft | 478 kts | 97° |
| 2026-05-04 19:13 | 42.21622 | 33.59252 | 36920 ft | 478 kts | 97° |
| 2026-05-04 19:13 | 42.20548 | 33.68105 | 36925 ft | 478 kts | 97° |
| 2026-05-04 19:14 | 42.19467 | 33.76953 | 36922 ft | 478 kts | 97° |
| 2026-05-04 19:14 | 42.18383 | 33.85805 | 36928 ft | 479 kts | 97° |
| 2026-05-04 19:15 | 42.17292 | 33.94623 | 36924 ft | 480 kts | 97° |
| 2026-05-04 19:15 | 42.16177 | 34.03549 | 36925 ft | 480 kts | 98° |
| 2026-05-04 19:16 | 42.15073 | 34.12348 | 36930 ft | 480 kts | 98° |
| 2026-05-04 19:16 | 42.13953 | 34.21230 | 36931 ft | 481 kts | 98° |
| 2026-05-04 19:17 | 42.12825 | 34.30116 | 36935 ft | 482 kts | 98° |
| 2026-05-04 19:17 | 42.11690 | 34.38994 | 36938 ft | 480 kts | 98° |
| 2026-05-04 19:18 | 42.10544 | 34.47861 | 36935 ft | 480 kts | 99° |
| 2026-05-04 19:18 | 42.09320 | 34.56712 | 36944 ft | 481 kts | 99° |
| 2026-05-04 19:19 | 42.08071 | 34.65566 | 36936 ft | 481 kts | 99° |
| 2026-05-04 19:19 | 42.06826 | 34.74424 | 36939 ft | 482 kts | 99° |
| 2026-05-04 19:20 | 42.05583 | 34.83277 | 36940 ft | 482 kts | 99° |
| 2026-05-04 19:20 | 42.04356 | 34.92155 | 36945 ft | 483 kts | 99° |
| 2026-05-04 19:21 | 42.03177 | 35.00995 | 36940 ft | 483 kts | 100° |
| 2026-05-04 19:21 | 42.01069 | 35.09544 | 36939 ft | 484 kts | 116° |
| 2026-05-04 19:22 | 41.97546 | 35.17267 | 36946 ft | 485 kts | 123° |
| 2026-05-04 19:22 | 41.93747 | 35.24762 | 36940 ft | 486 kts | 124° |
| 2026-05-04 19:23 | 41.89904 | 35.32248 | 36936 ft | 486 kts | 123° |
| 2026-05-04 19:23 | 41.86089 | 35.39728 | 36933 ft | 486 kts | 123° |
| 2026-05-04 19:24 | 41.82281 | 35.47221 | 36935 ft | 486 kts | 124° |
| 2026-05-04 19:24 | 41.78471 | 35.54706 | 36931 ft | 486 kts | 124° |
| 2026-05-04 19:25 | 41.74654 | 35.62187 | 36931 ft | 486 kts | 124° |
| 2026-05-04 19:25 | 41.70832 | 35.69656 | 36932 ft | 487 kts | 124° |
| 2026-05-04 19:26 | 41.66995 | 35.77136 | 36925 ft | 487 kts | 124° |
| 2026-05-04 19:26 | 41.63153 | 35.84606 | 36925 ft | 487 kts | 124° |
| 2026-05-04 19:27 | 41.59306 | 35.92068 | 36920 ft | 487 kts | 124° |
| 2026-05-04 19:27 | 41.55458 | 35.99515 | 36925 ft | 488 kts | 124° |
| 2026-05-04 19:28 | 41.51618 | 36.06928 | 36925 ft | 488 kts | 124° |
| 2026-05-04 19:28 | 41.47755 | 36.14365 | 36929 ft | 488 kts | 125° |
| 2026-05-04 19:29 | 41.43882 | 36.21806 | 36925 ft | 489 kts | 125° |
| 2026-05-04 19:29 | 41.40000 | 36.29245 | 36924 ft | 489 kts | 125° |
| 2026-05-04 19:30 | 41.36115 | 36.36672 | 36924 ft | 489 kts | 125° |
| 2026-05-04 19:30 | 41.32219 | 36.44102 | 36924 ft | 489 kts | 126° |
| 2026-05-04 19:31 | 41.28489 | 36.51664 | 36932 ft | 490 kts | 118° |
| 2026-05-04 19:31 | 41.26255 | 36.60209 | 36938 ft | 492 kts | 100° |
| 2026-05-04 19:32 | 41.25400 | 36.69239 | 36937 ft | 494 kts | 97° |
| 2026-05-04 19:32 | 41.24768 | 36.78336 | 36932 ft | 495 kts | 96° |
| 2026-05-04 19:33 | 41.24133 | 36.87435 | 36933 ft | 494 kts | 97° |
| 2026-05-04 19:33 | 41.23464 | 36.96465 | 36927 ft | 494 kts | 97° |
| 2026-05-04 19:34 | 41.22764 | 37.05604 | 36927 ft | 495 kts | 97° |
| 2026-05-04 19:34 | 41.22061 | 37.14645 | 36926 ft | 495 kts | 97° |
| 2026-05-04 19:35 | 41.21349 | 37.23741 | 36926 ft | 496 kts | 97° |
| 2026-05-04 19:35 | 41.20668 | 37.32862 | 36925 ft | 496 kts | 97° |
| 2026-05-04 19:36 | 41.20005 | 37.41976 | 36923 ft | 496 kts | 97° |
| 2026-05-04 19:36 | 41.19331 | 37.51094 | 36924 ft | 496 kts | 97° |
| 2026-05-04 19:37 | 41.18678 | 37.60227 | 36923 ft | 497 kts | 96° |
| 2026-05-04 19:37 | 41.18126 | 37.69370 | 36921 ft | 496 kts | 97° |
| 2026-05-04 19:38 | 41.17353 | 37.78476 | 36927 ft | 496 kts | 98° |
| 2026-05-04 19:38 | 41.16535 | 37.87583 | 36926 ft | 497 kts | 98° |
| 2026-05-04 19:39 | 41.15764 | 37.96634 | 36932 ft | 497 kts | 98° |
| 2026-05-04 19:39 | 41.15043 | 38.05754 | 36929 ft | 497 kts | 98° |
| 2026-05-04 19:40 | 41.14317 | 38.14886 | 36924 ft | 497 kts | 98° |
| 2026-05-04 19:40 | 41.13574 | 38.24012 | 36925 ft | 498 kts | 98° |
| 2026-05-04 19:41 | 41.12826 | 38.33152 | 36917 ft | 498 kts | 98° |
| 2026-05-04 19:41 | 41.12069 | 38.42287 | 36911 ft | 498 kts | 98° |
| 2026-05-04 19:42 | 41.11305 | 38.51413 | 36898 ft | 498 kts | 98° |
| 2026-05-04 19:42 | 41.10538 | 38.60504 | 36900 ft | 498 kts | 98° |
| 2026-05-04 19:43 | 41.09757 | 38.69635 | 36900 ft | 499 kts | 99° |
| 2026-05-04 19:43 | 41.08949 | 38.78756 | 36897 ft | 498 kts | 99° |
| 2026-05-04 19:44 | 41.08111 | 38.87891 | 36894 ft | 498 kts | 99° |
| 2026-05-04 19:44 | 41.07270 | 38.97027 | 36895 ft | 499 kts | 99° |
| 2026-05-04 19:45 | 41.06427 | 39.06154 | 36896 ft | 500 kts | 99° |
| 2026-05-04 19:45 | 41.05580 | 39.15291 | 36898 ft | 500 kts | 99° |
| 2026-05-04 19:46 | 41.04742 | 39.24435 | 36899 ft | 500 kts | 99° |
| 2026-05-04 19:46 | 41.03903 | 39.33519 | 36899 ft | 499 kts | 99° |
| 2026-05-04 19:47 | 41.03051 | 39.42661 | 36905 ft | 499 kts | 99° |
| 2026-05-04 19:47 | 41.02192 | 39.51783 | 36908 ft | 499 kts | 99° |
| 2026-05-04 19:48 | 41.01472 | 39.59363 | 36909 ft | 499 kts | 99° |
| 2026-05-04 19:48 | 41.00601 | 39.68474 | 36912 ft | 499 kts | 99° |
| 2026-05-04 19:49 | 40.99878 | 39.77632 | 36913 ft | 503 kts | 93° |
| 2026-05-04 19:49 | 41.00610 | 39.86867 | 36911 ft | 506 kts | 82° |
| 2026-05-04 19:50 | 41.01936 | 39.96042 | 36909 ft | 507 kts | 81° |
| 2026-05-04 19:50 | 41.03347 | 40.05203 | 36898 ft | 507 kts | 81° |
| 2026-05-04 19:51 | 41.04733 | 40.14357 | 36893 ft | 506 kts | 81° |
| 2026-05-04 19:51 | 41.06080 | 40.23454 | 36885 ft | 507 kts | 82° |
| 2026-05-04 19:52 | 41.07423 | 40.32632 | 36884 ft | 507 kts | 82° |
| 2026-05-04 19:52 | 41.08758 | 40.41808 | 36881 ft | 507 kts | 82° |
| 2026-05-04 19:53 | 41.10090 | 40.51003 | 36875 ft | 507 kts | 82° |
| 2026-05-04 19:53 | 41.11411 | 40.60179 | 36875 ft | 507 kts | 82° |
| 2026-05-04 19:54 | 41.12727 | 40.69375 | 36867 ft | 507 kts | 82° |
| 2026-05-04 19:54 | 41.14034 | 40.78562 | 36877 ft | 508 kts | 82° |
| 2026-05-04 19:55 | 41.15338 | 40.87789 | 36878 ft | 508 kts | 82° |
| 2026-05-04 19:55 | 41.16634 | 40.97010 | 36873 ft | 508 kts | 82° |
| 2026-05-04 19:56 | 41.17925 | 41.06247 | 36875 ft | 508 kts | 83° |
| 2026-05-04 19:56 | 41.19206 | 41.15468 | 36868 ft | 508 kts | 83° |
| 2026-05-04 19:57 | 41.20482 | 41.24711 | 36868 ft | 508 kts | 83° |
| 2026-05-04 19:57 | 41.21748 | 41.33948 | 36872 ft | 509 kts | 83° |
| 2026-05-04 19:58 | 41.23010 | 41.43205 | 36858 ft | 509 kts | 83° |
| 2026-05-04 19:58 | 41.24257 | 41.52410 | 36871 ft | 509 kts | 83° |
| 2026-05-04 19:59 | 41.25506 | 41.61686 | 36867 ft | 510 kts | 83° |
| 2026-05-04 19:59 | 41.26747 | 41.70961 | 36871 ft | 510 kts | 83° |
| 2026-05-04 20:00 | 41.27983 | 41.80271 | 36878 ft | 510 kts | 84° |
| 2026-05-04 20:00 | 41.29210 | 41.89560 | 36864 ft | 510 kts | 84° |
| 2026-05-04 20:01 | 41.30434 | 41.98881 | 36880 ft | 513 kts | 84° |
| 2026-05-04 20:01 | 41.31644 | 42.08212 | 36880 ft | 511 kts | 84° |
| 2026-05-04 20:02 | 41.32830 | 42.17491 | 36881 ft | 511 kts | 84° |
| 2026-05-04 20:02 | 41.34015 | 42.26819 | 36879 ft | 511 kts | 84° |
| 2026-05-04 20:03 | 41.35197 | 42.36154 | 36862 ft | 511 kts | 84° |
| 2026-05-04 20:03 | 41.36368 | 42.45458 | 36877 ft | 508 kts | 84° |
| 2026-05-04 20:04 | 41.37529 | 42.54752 | 36878 ft | 509 kts | 84° |
| 2026-05-04 20:04 | 41.38681 | 42.64049 | 36875 ft | 509 kts | 84° |
| 2026-05-04 20:05 | 41.39832 | 42.73383 | 36863 ft | 510 kts | 84° |
| 2026-05-04 20:05 | 41.40963 | 42.82626 | 36853 ft | 508 kts | 85° |
| 2026-05-04 20:06 | 41.42094 | 42.91929 | 36857 ft | 508 kts | 85° |
| 2026-05-04 20:06 | 41.42676 | 43.01241 | 36841 ft | 502 kts | 94° |
| 2026-05-04 20:07 | 41.42543 | 43.10533 | 36840 ft | 502 kts | 96° |
| 2026-05-04 20:07 | 41.42292 | 43.19847 | 36834 ft | 503 kts | 97° |
| 2026-05-04 20:08 | 41.42028 | 43.29160 | 36841 ft | 503 kts | 97° |
| 2026-05-04 20:08 | 41.41769 | 43.38489 | 36833 ft | 503 kts | 97° |
| 2026-05-04 20:09 | 41.41509 | 43.47815 | 36813 ft | 503 kts | 97° |
| 2026-05-04 20:09 | 41.41243 | 43.57141 | 36849 ft | 506 kts | 97° |
| 2026-05-04 20:10 | 41.40968 | 43.66513 | 36842 ft | 507 kts | 97° |
| 2026-05-04 20:10 | 41.40685 | 43.75901 | 36848 ft | 506 kts | 97° |
| 2026-05-04 20:11 | 41.40396 | 43.85240 | 36846 ft | 505 kts | 97° |
| 2026-05-04 20:11 | 41.40100 | 43.94536 | 36841 ft | 505 kts | 97° |
| 2026-05-04 20:12 | 41.39792 | 44.03924 | 36851 ft | 508 kts | 97° |
| 2026-05-04 20:12 | 41.39477 | 44.13336 | 36854 ft | 509 kts | 97° |
| 2026-05-04 20:13 | 41.39154 | 44.22761 | 36833 ft | 509 kts | 97° |
| 2026-05-04 20:13 | 41.38831 | 44.32138 | 36859 ft | 506 kts | 97° |
| 2026-05-04 20:14 | 41.38493 | 44.41493 | 36848 ft | 506 kts | 97° |
| 2026-05-04 20:14 | 41.38148 | 44.50854 | 36855 ft | 506 kts | 97° |
| 2026-05-04 20:15 | 41.37795 | 44.60211 | 36852 ft | 506 kts | 98° |
| 2026-05-04 20:15 | 41.37436 | 44.69586 | 36854 ft | 506 kts | 98° |
| 2026-05-04 20:16 | 41.37068 | 44.78943 | 36833 ft | 506 kts | 98° |
| 2026-05-04 20:16 | 41.36694 | 44.88260 | 36841 ft | 508 kts | 98° |
| 2026-05-04 20:17 | 41.36309 | 44.97688 | 36838 ft | 509 kts | 98° |
| 2026-05-04 20:17 | 41.35762 | 45.07058 | 36839 ft | 504 kts | 105° |
| 2026-05-04 20:18 | 41.33937 | 45.15977 | 36839 ft | 497 kts | 113° |
| 2026-05-04 20:18 | 41.31732 | 45.24692 | 36839 ft | 497 kts | 115° |
| 2026-05-04 20:19 | 41.29462 | 45.33374 | 36842 ft | 497 kts | 115° |
| 2026-05-04 20:19 | 41.27212 | 45.42007 | 36835 ft | 497 kts | 115° |
| 2026-05-04 20:20 | 41.24955 | 45.50697 | 36821 ft | 497 kts | 115° |
| 2026-05-04 20:20 | 41.22690 | 45.59407 | 36837 ft | 499 kts | 115° |
| 2026-05-04 20:21 | 41.20414 | 45.68137 | 36837 ft | 500 kts | 115° |
| 2026-05-04 20:21 | 41.16980 | 45.81190 | 36839 ft | 500 kts | 116° |
| 2026-05-04 20:22 | 41.14683 | 45.89855 | 36842 ft | 501 kts | 116° |
| 2026-05-04 20:22 | 41.12368 | 45.98571 | 36843 ft | 501 kts | 116° |
| 2026-05-04 20:23 | 41.10046 | 46.07291 | 36843 ft | 501 kts | 116° |
| 2026-05-04 20:23 | 41.07719 | 46.16000 | 36844 ft | 501 kts | 116° |
| 2026-05-04 20:24 | 41.05385 | 46.24704 | 36846 ft | 502 kts | 116° |
| 2026-05-04 20:24 | 41.03047 | 46.33415 | 36845 ft | 502 kts | 116° |
| 2026-05-04 20:25 | 41.00720 | 46.42130 | 36849 ft | 503 kts | 116° |
| 2026-05-04 20:25 | 40.98377 | 46.50879 | 36847 ft | 506 kts | 116° |
| 2026-05-04 20:26 | 40.96028 | 46.59614 | 36853 ft | 507 kts | 117° |
| 2026-05-04 20:26 | 40.93645 | 46.68448 | 36844 ft | 507 kts | 117° |
| 2026-05-04 20:27 | 40.91451 | 46.77289 | 36837 ft | 515 kts | 109° |
| 2026-05-04 20:27 | 40.90988 | 46.86871 | 36850 ft | 535 kts | 88° |
| 2026-05-04 20:28 | 40.92468 | 46.96597 | 36851 ft | 542 kts | 81° |
| 2026-05-04 20:28 | 40.94314 | 47.06287 | 36859 ft | 543 kts | 79° |
| 2026-05-04 20:29 | 40.96160 | 47.15945 | 36860 ft | 542 kts | 80° |
| 2026-05-04 20:29 | 40.97962 | 47.25654 | 36855 ft | 542 kts | 81° |
| 2026-05-04 20:30 | 40.99730 | 47.35352 | 36854 ft | 542 kts | 80° |
| 2026-05-04 20:30 | 41.01476 | 47.45001 | 36858 ft | 541 kts | 80° |
| 2026-05-04 20:31 | 41.03226 | 47.54718 | 36856 ft | 543 kts | 80° |
| 2026-05-04 20:31 | 41.04975 | 47.64463 | 36853 ft | 543 kts | 80° |
| 2026-05-04 20:32 | 41.06711 | 47.74186 | 36848 ft | 540 kts | 79° |
| 2026-05-04 20:32 | 41.08418 | 47.83791 | 36851 ft | 538 kts | 79° |
| 2026-05-04 20:33 | 41.10179 | 47.93425 | 36853 ft | 539 kts | 75° |
| 2026-05-04 20:33 | 41.13419 | 48.02395 | 36855 ft | 541 kts | 57° |
| 2026-05-04 20:34 | 41.17722 | 48.10539 | 36862 ft | 537 kts | 54° |
| 2026-05-04 20:34 | 41.21439 | 48.17214 | 36871 ft | 536 kts | 53° |
| 2026-05-04 20:35 | 41.25874 | 48.25179 | 36878 ft | 536 kts | 54° |
| 2026-05-04 20:35 | 41.30269 | 48.33165 | 36892 ft | 540 kts | 54° |
| 2026-05-04 20:36 | 41.34687 | 48.41251 | 36904 ft | 540 kts | 54° |
| 2026-05-04 20:36 | 41.39099 | 48.49353 | 36916 ft | 541 kts | 54° |
| 2026-05-04 20:37 | 41.43520 | 48.57486 | 36918 ft | 543 kts | 54° |
| 2026-05-04 20:37 | 41.48030 | 48.65593 | 36923 ft | 543 kts | 53° |
| 2026-05-04 20:38 | 41.52571 | 48.73670 | 36918 ft | 543 kts | 53° |
| 2026-05-04 20:38 | 41.56939 | 48.81908 | 36917 ft | 543 kts | 57° |
| 2026-05-04 20:39 | 41.61091 | 48.90330 | 36918 ft | 543 kts | 57° |
| 2026-05-04 20:39 | 41.65249 | 48.98757 | 36920 ft | 543 kts | 57° |
| 2026-05-04 20:40 | 41.69434 | 49.07157 | 36918 ft | 543 kts | 57° |
| 2026-05-04 20:40 | 41.73611 | 49.15517 | 36913 ft | 543 kts | 57° |
| 2026-05-04 20:41 | 41.77802 | 49.23922 | 36920 ft | 542 kts | 57° |
| 2026-05-04 20:41 | 41.81980 | 49.32325 | 36920 ft | 541 kts | 57° |
| 2026-05-04 20:42 | 41.86374 | 49.40520 | 36909 ft | 541 kts | 54° |
| 2026-05-04 20:42 | 41.90893 | 49.48613 | 36922 ft | 541 kts | 54° |
| 2026-05-04 20:43 | 41.95376 | 49.56743 | 36920 ft | 541 kts | 54° |
| 2026-05-04 20:43 | 41.99787 | 49.64852 | 36919 ft | 539 kts | 54° |
| 2026-05-04 20:44 | 42.04185 | 49.72990 | 36920 ft | 537 kts | 54° |
| 2026-05-04 20:44 | 42.08568 | 49.81122 | 36918 ft | 536 kts | 54° |
| 2026-05-04 20:45 | 42.12943 | 49.89257 | 36915 ft | 536 kts | 55° |
| 2026-05-04 20:45 | 42.17304 | 49.97386 | 36919 ft | 535 kts | 55° |
| 2026-05-04 20:46 | 42.21663 | 50.05531 | 36916 ft | 535 kts | 55° |
| 2026-05-04 20:46 | 42.26009 | 50.13676 | 36917 ft | 534 kts | 55° |
| 2026-05-04 20:47 | 42.30310 | 50.21757 | 36914 ft | 533 kts | 55° |
| 2026-05-04 20:47 | 42.34661 | 50.29957 | 36914 ft | 533 kts | 55° |
| 2026-05-04 20:48 | 42.38946 | 50.38052 | 36907 ft | 533 kts | 55° |
| 2026-05-04 20:48 | 42.43264 | 50.46231 | 36912 ft | 532 kts | 55° |
| 2026-05-04 20:49 | 42.47690 | 50.54288 | 36912 ft | 533 kts | 52° |
| 2026-05-04 20:49 | 42.52279 | 50.62180 | 36908 ft | 532 kts | 52° |
| 2026-05-04 20:50 | 42.56852 | 50.70081 | 36908 ft | 532 kts | 52° |
| 2026-05-04 20:50 | 42.61386 | 50.78020 | 36907 ft | 532 kts | 53° |
| 2026-05-04 20:51 | 42.65904 | 50.85986 | 36921 ft | 532 kts | 53° |
| 2026-05-04 20:51 | 42.70384 | 50.93912 | 36909 ft | 531 kts | 53° |
| 2026-05-04 20:52 | 42.74878 | 51.01880 | 36904 ft | 531 kts | 53° |
| 2026-05-04 20:52 | 42.79375 | 51.09871 | 36901 ft | 531 kts | 53° |
| 2026-05-04 20:53 | 42.83873 | 51.17887 | 36902 ft | 531 kts | 53° |
| 2026-05-04 20:53 | 42.88357 | 51.25899 | 36909 ft | 531 kts | 53° |
| 2026-05-04 20:54 | 42.92829 | 51.33911 | 36896 ft | 530 kts | 53° |
| 2026-05-04 20:54 | 42.97289 | 51.41923 | 36891 ft | 530 kts | 53° |
| 2026-05-04 20:55 | 43.01717 | 51.49900 | 36889 ft | 530 kts | 53° |
| 2026-05-04 20:55 | 43.06166 | 51.57937 | 36887 ft | 530 kts | 53° |
| 2026-05-04 20:56 | 43.10608 | 51.65980 | 36889 ft | 530 kts | 53° |
| 2026-05-04 20:56 | 43.15051 | 51.74050 | 36888 ft | 530 kts | 53° |
| 2026-05-04 20:57 | 43.19488 | 51.82131 | 36887 ft | 531 kts | 53° |
| 2026-05-04 20:57 | 43.23923 | 51.90229 | 36881 ft | 531 kts | 53° |
| 2026-05-04 20:58 | 43.28355 | 51.98344 | 36882 ft | 531 kts | 53° |
| 2026-05-04 20:58 | 43.32785 | 52.06478 | 36878 ft | 532 kts | 53° |
| 2026-05-04 20:59 | 43.37182 | 52.14573 | 36879 ft | 532 kts | 53° |
| 2026-05-04 20:59 | 43.41612 | 52.22753 | 36876 ft | 532 kts | 53° |
| 2026-05-04 21:00 | 43.46026 | 52.30925 | 36875 ft | 532 kts | 53° |
| 2026-05-04 21:00 | 43.50436 | 52.39112 | 36877 ft | 532 kts | 54° |
| 2026-05-04 21:01 | 43.54815 | 52.47265 | 36873 ft | 532 kts | 54° |
| 2026-05-04 21:01 | 43.59238 | 52.55521 | 36868 ft | 532 kts | 54° |
| 2026-05-04 21:02 | 43.63597 | 52.63683 | 36867 ft | 531 kts | 54° |
| 2026-05-04 21:02 | 43.67977 | 52.71910 | 36876 ft | 531 kts | 54° |
| 2026-05-04 21:03 | 43.72341 | 52.80158 | 36863 ft | 530 kts | 54° |
| 2026-05-04 21:03 | 43.76681 | 52.88391 | 36862 ft | 528 kts | 54° |
| 2026-05-04 21:04 | 43.80975 | 52.96554 | 36863 ft | 528 kts | 54° |
| 2026-05-04 21:04 | 43.85295 | 53.04787 | 36850 ft | 528 kts | 54° |
| 2026-05-04 21:05 | 43.89603 | 53.13024 | 36849 ft | 527 kts | 54° |
| 2026-05-04 21:05 | 43.93900 | 53.21269 | 36852 ft | 527 kts | 54° |
| 2026-05-04 21:06 | 43.98196 | 53.29528 | 36847 ft | 527 kts | 54° |
| 2026-05-04 21:06 | 44.02460 | 53.37748 | 36847 ft | 528 kts | 54° |
| 2026-05-04 21:07 | 44.06748 | 53.46041 | 36847 ft | 528 kts | 54° |
| 2026-05-04 21:07 | 44.11026 | 53.54339 | 36842 ft | 528 kts | 54° |
| 2026-05-04 21:08 | 44.15307 | 53.62667 | 36846 ft | 530 kts | 54° |
| 2026-05-04 21:08 | 44.19593 | 53.71026 | 36844 ft | 530 kts | 54° |
| 2026-05-04 21:09 | 44.23877 | 53.79409 | 36844 ft | 530 kts | 55° |
| 2026-05-04 21:09 | 44.28154 | 53.87799 | 36845 ft | 530 kts | 55° |
| 2026-05-04 21:10 | 44.32392 | 53.96139 | 36838 ft | 530 kts | 55° |
| 2026-05-04 21:10 | 44.36655 | 54.04551 | 36838 ft | 530 kts | 55° |
| 2026-05-04 21:11 | 44.40912 | 54.12976 | 36838 ft | 531 kts | 55° |
| 2026-05-04 21:11 | 44.45168 | 54.21424 | 36836 ft | 531 kts | 55° |
| 2026-05-04 21:12 | 44.49421 | 54.29889 | 36841 ft | 531 kts | 55° |
| 2026-05-04 21:12 | 44.53662 | 54.38357 | 36828 ft | 530 kts | 55° |
| 2026-05-04 21:13 | 44.57886 | 54.46816 | 36830 ft | 529 kts | 55° |
| 2026-05-04 21:13 | 44.62107 | 54.55291 | 36823 ft | 529 kts | 55° |
| 2026-05-04 21:14 | 44.66509 | 54.63570 | 36818 ft | 529 kts | 46° |
| 2026-05-04 21:14 | 44.71739 | 54.70708 | 36820 ft | 528 kts | 42° |
| 2026-05-04 21:15 | 44.77078 | 54.77789 | 36818 ft | 527 kts | 46° |
| 2026-05-04 21:15 | 44.82373 | 54.84963 | 36813 ft | 529 kts | 45° |
| 2026-05-04 21:16 | 44.87750 | 54.92034 | 36813 ft | 529 kts | 45° |
| 2026-05-04 21:16 | 44.93184 | 54.99063 | 36812 ft | 529 kts | 44° |
| 2026-05-04 21:17 | 44.98619 | 55.06081 | 36808 ft | 529 kts | 45° |
| 2026-05-04 21:17 | 45.04017 | 55.13083 | 36808 ft | 524 kts | 45° |
| 2026-05-04 21:18 | 45.08552 | 55.20935 | 36810 ft | 517 kts | 64° |
| 2026-05-04 21:18 | 45.11512 | 55.30200 | 36811 ft | 517 kts | 72° |
| 2026-05-04 21:19 | 45.14107 | 55.39717 | 36815 ft | 520 kts | 73° |
| 2026-05-04 21:19 | 45.16674 | 55.49325 | 36815 ft | 522 kts | 73° |
| 2026-05-04 21:20 | 45.19265 | 55.58919 | 36820 ft | 521 kts | 73° |
| 2026-05-04 21:20 | 45.21866 | 55.68504 | 36820 ft | 521 kts | 73° |
| 2026-05-04 21:21 | 45.24467 | 55.78105 | 36822 ft | 521 kts | 73° |
| 2026-05-04 21:21 | 45.27057 | 55.87714 | 36813 ft | 521 kts | 73° |
| 2026-05-04 21:22 | 45.29626 | 55.97285 | 36833 ft | 522 kts | 73° |
| 2026-05-04 21:22 | 45.32197 | 56.06908 | 36835 ft | 520 kts | 73° |
| 2026-05-04 21:23 | 45.34755 | 56.16519 | 36837 ft | 519 kts | 73° |
| 2026-05-04 21:23 | 45.37304 | 56.26132 | 36836 ft | 519 kts | 73° |
| 2026-05-04 21:24 | 45.39432 | 56.34189 | 36840 ft | 519 kts | 73° |
| 2026-05-04 21:24 | 45.41946 | 56.43746 | 36839 ft | 518 kts | 73° |
| 2026-05-04 21:25 | 45.44462 | 56.53345 | 36845 ft | 517 kts | 73° |
| 2026-05-04 21:25 | 45.46973 | 56.62964 | 36848 ft | 517 kts | 73° |
| 2026-05-04 21:26 | 45.49467 | 56.72562 | 36851 ft | 517 kts | 74° |
| 2026-05-04 21:26 | 45.51959 | 56.82190 | 36856 ft | 518 kts | 74° |
| 2026-05-04 21:27 | 45.54446 | 56.91838 | 36853 ft | 518 kts | 74° |
| 2026-05-04 21:27 | 45.56922 | 57.01482 | 36853 ft | 518 kts | 74° |
| 2026-05-04 21:28 | 45.59389 | 57.11132 | 36853 ft | 517 kts | 74° |
| 2026-05-04 21:28 | 45.61827 | 57.20712 | 36873 ft | 516 kts | 74° |
| 2026-05-04 21:29 | 45.64275 | 57.30367 | 36859 ft | 516 kts | 74° |
| 2026-05-04 21:29 | 45.66710 | 57.40012 | 36855 ft | 516 kts | 74° |
| 2026-05-04 21:30 | 45.69136 | 57.49663 | 36862 ft | 515 kts | 74° |
| 2026-05-04 21:30 | 45.71550 | 57.59305 | 36880 ft | 514 kts | 74° |
| 2026-05-04 21:31 | 45.75142 | 57.73712 | 36863 ft | 514 kts | 74° |
| 2026-05-04 21:32 | 45.77530 | 57.83358 | 36866 ft | 513 kts | 74° |
| 2026-05-04 21:32 | 45.79908 | 57.93010 | 36873 ft | 513 kts | 75° |
| 2026-05-04 21:33 | 45.82279 | 58.02669 | 36885 ft | 513 kts | 75° |
| 2026-05-04 21:33 | 45.84640 | 58.12329 | 36886 ft | 513 kts | 75° |
| 2026-05-04 21:34 | 45.86996 | 58.22006 | 36873 ft | 513 kts | 75° |
| 2026-05-04 21:34 | 45.89346 | 58.31697 | 36883 ft | 513 kts | 75° |
| 2026-05-04 21:35 | 45.91670 | 58.41327 | 36890 ft | 513 kts | 75° |
| 2026-05-04 21:35 | 45.93998 | 58.51017 | 36890 ft | 513 kts | 75° |
| 2026-05-04 21:36 | 45.96314 | 58.60697 | 36889 ft | 512 kts | 75° |
| 2026-05-04 21:36 | 45.98623 | 58.70389 | 36889 ft | 512 kts | 75° |
| 2026-05-04 21:37 | 46.00930 | 58.80114 | 36895 ft | 512 kts | 75° |
| 2026-05-04 21:37 | 46.03220 | 58.89815 | 36901 ft | 512 kts | 75° |
| 2026-05-04 21:38 | 46.05507 | 58.99541 | 36883 ft | 512 kts | 75° |
| 2026-05-04 21:38 | 46.07770 | 59.09211 | 36899 ft | 512 kts | 75° |
| 2026-05-04 21:39 | 46.10042 | 59.18963 | 36904 ft | 512 kts | 75° |
| 2026-05-04 21:39 | 46.12302 | 59.28705 | 36893 ft | 513 kts | 75° |
| 2026-05-04 21:40 | 46.14558 | 59.38473 | 36901 ft | 513 kts | 75° |
| 2026-05-04 21:40 | 46.16792 | 59.48189 | 36906 ft | 514 kts | 75° |
| 2026-05-04 21:41 | 46.19033 | 59.57983 | 36906 ft | 514 kts | 75° |
| 2026-05-04 21:41 | 46.21270 | 59.67801 | 36905 ft | 514 kts | 75° |
| 2026-05-04 21:42 | 46.23499 | 59.77623 | 36910 ft | 514 kts | 75° |
| 2026-05-04 21:42 | 46.25705 | 59.87463 | 36911 ft | 514 kts | 75° |
| 2026-05-04 21:43 | 46.27886 | 59.97260 | 36914 ft | 514 kts | 75° |
| 2026-05-04 21:43 | 46.30077 | 60.07132 | 36916 ft | 514 kts | 75° |
| 2026-05-04 21:44 | 46.32255 | 60.16982 | 36915 ft | 514 kts | 75° |
| 2026-05-04 21:44 | 46.34412 | 60.26781 | 36915 ft | 514 kts | 75° |
| 2026-05-04 21:45 | 46.36573 | 60.36641 | 36918 ft | 514 kts | 75° |
| 2026-05-04 21:45 | 46.38730 | 60.46532 | 36921 ft | 514 kts | 75° |
| 2026-05-04 21:46 | 46.40874 | 60.56413 | 36920 ft | 514 kts | 75° |
| 2026-05-04 21:46 | 46.43012 | 60.66312 | 36923 ft | 514 kts | 75° |
| 2026-05-04 21:47 | 46.45142 | 60.76219 | 36906 ft | 514 kts | 76° |
| 2026-05-04 21:47 | 46.47248 | 60.86060 | 36926 ft | 514 kts | 76° |
| 2026-05-04 21:48 | 46.49372 | 60.96036 | 36929 ft | 514 kts | 76° |
| 2026-05-04 21:48 | 46.51475 | 61.05960 | 36927 ft | 514 kts | 76° |
| 2026-05-04 21:49 | 46.53553 | 61.15815 | 36929 ft | 514 kts | 76° |
| 2026-05-04 21:49 | 46.55638 | 61.25752 | 36932 ft | 514 kts | 76° |
| 2026-05-04 21:50 | 46.57714 | 61.35692 | 36924 ft | 514 kts | 76° |
| 2026-05-04 21:50 | 46.59783 | 61.45653 | 36939 ft | 514 kts | 76° |
| 2026-05-04 21:51 | 46.61829 | 61.55545 | 36941 ft | 514 kts | 76° |
| 2026-05-04 21:51 | 46.63880 | 61.65516 | 36927 ft | 514 kts | 76° |
| 2026-05-04 21:52 | 46.65920 | 61.75481 | 36922 ft | 514 kts | 76° |
| 2026-05-04 21:52 | 46.67953 | 61.85463 | 36941 ft | 514 kts | 77° |
| 2026-05-04 21:53 | 46.69975 | 61.95439 | 36940 ft | 514 kts | 77° |
| 2026-05-04 21:53 | 46.71984 | 62.05404 | 36933 ft | 514 kts | 77° |
| 2026-05-04 21:54 | 46.73994 | 62.15419 | 36931 ft | 513 kts | 77° |
| 2026-05-04 21:54 | 46.75989 | 62.25416 | 36950 ft | 512 kts | 77° |
| 2026-05-04 21:55 | 46.77963 | 62.35354 | 36934 ft | 512 kts | 77° |
| 2026-05-04 21:55 | 46.79937 | 62.45345 | 36928 ft | 512 kts | 77° |
| 2026-05-04 21:56 | 46.81903 | 62.55344 | 36946 ft | 512 kts | 77° |
| 2026-05-04 21:56 | 46.83852 | 62.65326 | 36946 ft | 511 kts | 77° |
| 2026-05-04 21:57 | 46.85799 | 62.75325 | 36938 ft | 511 kts | 77° |
| 2026-05-04 21:57 | 46.87739 | 62.85330 | 36939 ft | 511 kts | 77° |
| 2026-05-04 21:58 | 46.89666 | 62.95336 | 36945 ft | 511 kts | 77° |
| 2026-05-04 21:58 | 46.91582 | 63.05334 | 36946 ft | 510 kts | 77° |
| 2026-05-04 21:59 | 46.93477 | 63.15275 | 36947 ft | 510 kts | 78° |
| 2026-05-04 21:59 | 46.95378 | 63.25303 | 36950 ft | 510 kts | 78° |
| 2026-05-04 22:00 | 46.97265 | 63.35310 | 36951 ft | 510 kts | 78° |
| 2026-05-04 22:00 | 46.99146 | 63.45337 | 36952 ft | 510 kts | 78° |
| 2026-05-04 22:01 | 47.01019 | 63.55374 | 36950 ft | 510 kts | 78° |
| 2026-05-04 22:01 | 47.02882 | 63.65411 | 36953 ft | 510 kts | 78° |
| 2026-05-04 22:02 | 47.04721 | 63.75378 | 36954 ft | 510 kts | 78° |
| 2026-05-04 22:02 | 47.06567 | 63.85432 | 36959 ft | 510 kts | 78° |
| 2026-05-04 22:03 | 47.08403 | 63.95486 | 36958 ft | 510 kts | 78° |
| 2026-05-04 22:03 | 47.10229 | 64.05539 | 36961 ft | 510 kts | 78° |
| 2026-05-04 22:04 | 47.12048 | 64.15613 | 36963 ft | 510 kts | 78° |
| 2026-05-04 22:04 | 47.13858 | 64.25692 | 36964 ft | 510 kts | 79° |
| 2026-05-04 22:05 | 47.15646 | 64.35704 | 36962 ft | 510 kts | 79° |
| 2026-05-04 22:05 | 47.17436 | 64.45786 | 36965 ft | 510 kts | 79° |
| 2026-05-04 22:06 | 47.19217 | 64.55866 | 36964 ft | 509 kts | 79° |
| 2026-05-04 22:06 | 47.20995 | 64.65934 | 36965 ft | 509 kts | 79° |
| 2026-05-04 22:07 | 47.22768 | 64.76043 | 36971 ft | 509 kts | 79° |
| 2026-05-04 22:07 | 47.24528 | 64.86136 | 36970 ft | 509 kts | 79° |
| 2026-05-04 22:08 | 47.26277 | 64.96221 | 36976 ft | 508 kts | 79° |
| 2026-05-04 22:08 | 47.28010 | 65.06252 | 36976 ft | 508 kts | 79° |
| 2026-05-04 22:09 | 47.29749 | 65.16410 | 36981 ft | 508 kts | 79° |
| 2026-05-04 22:09 | 47.31454 | 65.26444 | 36982 ft | 508 kts | 79° |
| 2026-05-04 22:10 | 47.33162 | 65.36543 | 36986 ft | 508 kts | 79° |
| 2026-05-04 22:10 | 47.34862 | 65.46649 | 36987 ft | 508 kts | 80° |
| 2026-05-04 22:11 | 47.36557 | 65.56784 | 36991 ft | 508 kts | 80° |
| 2026-05-04 22:11 | 47.38241 | 65.66911 | 36991 ft | 508 kts | 80° |
| 2026-05-04 22:12 | 47.39914 | 65.77036 | 36999 ft | 508 kts | 80° |
| 2026-05-04 22:12 | 47.41580 | 65.87170 | 37003 ft | 508 kts | 80° |
| 2026-05-04 22:13 | 47.43006 | 65.95592 | 37002 ft | 508 kts | 79° |
| 2026-05-04 22:13 | 47.44750 | 66.05709 | 37007 ft | 508 kts | 79° |
| 2026-05-04 22:14 | 47.46477 | 66.15824 | 37006 ft | 507 kts | 79° |
| 2026-05-04 22:14 | 47.48184 | 66.25937 | 37015 ft | 507 kts | 79° |
| 2026-05-04 22:15 | 47.49880 | 66.36073 | 37020 ft | 507 kts | 79° |
| 2026-05-04 22:15 | 47.51566 | 66.46208 | 37020 ft | 507 kts | 79° |
| 2026-05-04 22:16 | 47.53242 | 66.56345 | 37029 ft | 507 kts | 79° |
| 2026-05-04 22:16 | 47.54910 | 66.66486 | 37031 ft | 507 kts | 79° |
| 2026-05-04 22:17 | 47.56563 | 66.76643 | 37031 ft | 507 kts | 80° |
| 2026-05-04 22:17 | 47.58155 | 66.86817 | 37034 ft | 506 kts | 80° |
| 2026-05-04 22:18 | 47.59713 | 66.96912 | 37037 ft | 506 kts | 80° |
| 2026-05-04 22:18 | 47.61278 | 67.07068 | 37037 ft | 505 kts | 80° |
| 2026-05-04 22:19 | 47.62840 | 67.17236 | 37036 ft | 505 kts | 80° |
| 2026-05-04 22:19 | 47.64393 | 67.27401 | 37037 ft | 505 kts | 80° |
| 2026-05-04 22:20 | 47.65934 | 67.37558 | 37043 ft | 505 kts | 80° |
| 2026-05-04 22:20 | 47.67467 | 67.47721 | 37041 ft | 505 kts | 80° |
| 2026-05-04 22:21 | 47.68992 | 67.57901 | 37041 ft | 505 kts | 80° |
| 2026-05-04 22:21 | 47.70507 | 67.68084 | 37046 ft | 505 kts | 80° |
| 2026-05-04 22:22 | 47.72001 | 67.78203 | 37051 ft | 505 kts | 81° |
| 2026-05-04 22:22 | 47.73122 | 67.88468 | 37045 ft | 504 kts | 85° |
| 2026-05-04 22:23 | 47.74004 | 67.98799 | 37053 ft | 505 kts | 85° |
| 2026-05-04 22:23 | 47.74926 | 68.09158 | 37056 ft | 505 kts | 85° |
| 2026-05-04 22:24 | 47.75898 | 68.19514 | 37058 ft | 505 kts | 85° |
| 2026-05-04 22:24 | 47.76878 | 68.29852 | 37058 ft | 505 kts | 85° |
| 2026-05-04 22:25 | 47.77849 | 68.40191 | 37059 ft | 505 kts | 85° |
| 2026-05-04 22:25 | 47.78800 | 68.50449 | 37060 ft | 505 kts | 85° |
| 2026-05-04 22:26 | 47.79748 | 68.60791 | 37060 ft | 504 kts | 85° |
| 2026-05-04 22:26 | 47.80687 | 68.71139 | 37067 ft | 504 kts | 85° |
| 2026-05-04 22:27 | 47.81501 | 68.81487 | 37080 ft | 503 kts | 91° |
| 2026-05-04 22:27 | 47.81490 | 68.91886 | 37069 ft | 504 kts | 94° |
| 2026-05-04 22:28 | 47.81300 | 69.02346 | 37069 ft | 505 kts | 95° |
| 2026-05-04 22:28 | 47.81078 | 69.12791 | 37071 ft | 505 kts | 95° |
| 2026-05-04 22:29 | 47.80861 | 69.23240 | 37076 ft | 504 kts | 94° |
| 2026-05-04 22:29 | 47.80645 | 69.33662 | 37082 ft | 504 kts | 94° |
| 2026-05-04 22:30 | 47.80423 | 69.44023 | 37076 ft | 505 kts | 94° |
| 2026-05-04 22:30 | 47.80190 | 69.54469 | 37083 ft | 505 kts | 95° |
| 2026-05-04 22:31 | 47.79947 | 69.64908 | 37081 ft | 505 kts | 95° |
| 2026-05-04 22:31 | 47.79694 | 69.75351 | 37086 ft | 505 kts | 95° |
| 2026-05-04 22:32 | 47.79431 | 69.85797 | 37087 ft | 505 kts | 95° |
| 2026-05-04 22:32 | 47.79159 | 69.96243 | 37086 ft | 505 kts | 95° |
| 2026-05-04 22:33 | 47.78878 | 70.06691 | 37089 ft | 505 kts | 95° |
| 2026-05-04 22:33 | 47.78587 | 70.17139 | 37084 ft | 505 kts | 95° |
| 2026-05-04 22:34 | 47.78288 | 70.27495 | 37101 ft | 504 kts | 95° |
| 2026-05-04 22:34 | 47.77979 | 70.37901 | 37100 ft | 504 kts | 95° |
| 2026-05-04 22:35 | 47.77660 | 70.48330 | 37103 ft | 505 kts | 95° |
| 2026-05-04 22:35 | 47.77333 | 70.58734 | 37102 ft | 504 kts | 95° |
| 2026-05-04 22:36 | 47.76998 | 70.69169 | 37115 ft | 504 kts | 95° |
| 2026-05-04 22:36 | 47.76648 | 70.79575 | 37117 ft | 504 kts | 95° |
| 2026-05-04 22:37 | 47.76287 | 70.89988 | 37117 ft | 504 kts | 95° |
| 2026-05-04 22:37 | 47.75918 | 71.00391 | 37121 ft | 504 kts | 95° |
| 2026-05-04 22:38 | 47.75540 | 71.10802 | 37120 ft | 504 kts | 95° |
| 2026-05-04 22:38 | 47.75154 | 71.21202 | 37127 ft | 504 kts | 95° |
| 2026-05-04 22:39 | 47.74758 | 71.31603 | 37127 ft | 504 kts | 95° |
| 2026-05-04 22:39 | 47.74356 | 71.41931 | 37126 ft | 504 kts | 95° |
| 2026-05-04 22:40 | 47.73942 | 71.52318 | 37137 ft | 504 kts | 95° |
| 2026-05-04 22:40 | 47.73518 | 71.62727 | 37144 ft | 504 kts | 95° |
| 2026-05-04 22:41 | 47.73084 | 71.73124 | 37152 ft | 504 kts | 95° |
| 2026-05-04 22:41 | 47.72645 | 71.83443 | 37151 ft | 503 kts | 95° |
| 2026-05-04 22:42 | 47.72099 | 71.93822 | 37141 ft | 503 kts | 97° |
| 2026-05-04 22:42 | 47.71472 | 72.04185 | 37154 ft | 504 kts | 97° |
| 2026-05-04 22:43 | 47.70845 | 72.14545 | 37157 ft | 504 kts | 97° |
| 2026-05-04 22:43 | 47.70224 | 72.24910 | 37151 ft | 504 kts | 97° |
| 2026-05-04 22:44 | 47.69602 | 72.35222 | 37156 ft | 502 kts | 97° |
| 2026-05-04 22:44 | 47.68971 | 72.45546 | 37152 ft | 501 kts | 97° |
| 2026-05-04 22:45 | 47.68332 | 72.55845 | 37159 ft | 501 kts | 97° |
| 2026-05-04 22:45 | 47.67358 | 72.71241 | 37157 ft | 501 kts | 97° |
| 2026-05-04 22:46 | 47.66694 | 72.81544 | 37160 ft | 501 kts | 97° |
| 2026-05-04 22:46 | 47.66022 | 72.91834 | 37176 ft | 501 kts | 97° |
| 2026-05-04 22:47 | 47.65341 | 73.02117 | 37163 ft | 501 kts | 97° |
| 2026-05-04 22:47 | 47.64648 | 73.12424 | 37170 ft | 502 kts | 97° |
| 2026-05-04 22:48 | 47.63947 | 73.22727 | 37170 ft | 502 kts | 97° |
| 2026-05-04 22:48 | 47.63240 | 73.32974 | 37169 ft | 501 kts | 97° |
| 2026-05-04 22:49 | 47.62518 | 73.43303 | 37174 ft | 500 kts | 97° |
| 2026-05-04 22:49 | 47.61797 | 73.53495 | 37184 ft | 501 kts | 97° |
| 2026-05-04 22:50 | 47.61061 | 73.63769 | 37182 ft | 501 kts | 98° |
| 2026-05-04 22:50 | 47.60316 | 73.74023 | 37184 ft | 501 kts | 98° |
| 2026-05-04 22:51 | 47.59562 | 73.84275 | 37190 ft | 501 kts | 98° |
| 2026-05-04 22:51 | 47.58797 | 73.94547 | 37189 ft | 501 kts | 98° |
| 2026-05-04 22:52 | 47.58024 | 74.04816 | 37184 ft | 502 kts | 98° |
| 2026-05-04 22:52 | 47.57241 | 74.15084 | 37184 ft | 502 kts | 98° |
| 2026-05-04 22:53 | 47.56448 | 74.25347 | 37190 ft | 502 kts | 98° |
| 2026-05-04 22:53 | 47.55646 | 74.35613 | 37194 ft | 501 kts | 98° |
| 2026-05-04 22:54 | 47.54841 | 74.45795 | 37191 ft | 501 kts | 98° |
| 2026-05-04 22:54 | 47.54022 | 74.56051 | 37195 ft | 501 kts | 98° |
| 2026-05-04 22:55 | 47.53192 | 74.66314 | 37191 ft | 501 kts | 98° |
| 2026-05-04 22:55 | 47.52354 | 74.76565 | 37189 ft | 501 kts | 98° |
| 2026-05-04 22:56 | 47.51506 | 74.86812 | 37197 ft | 502 kts | 98° |
| 2026-05-04 22:56 | 47.50650 | 74.97066 | 37203 ft | 502 kts | 98° |
| 2026-05-04 22:57 | 47.49784 | 75.07306 | 37199 ft | 502 kts | 98° |
| 2026-05-04 22:57 | 47.48907 | 75.17561 | 37201 ft | 502 kts | 98° |
| 2026-05-04 22:58 | 47.48030 | 75.27724 | 37204 ft | 502 kts | 98° |
| 2026-05-04 22:58 | 47.47136 | 75.37968 | 37208 ft | 502 kts | 98° |
| 2026-05-04 22:59 | 47.46233 | 75.48201 | 37202 ft | 502 kts | 98° |
| 2026-05-04 22:59 | 47.45476 | 75.56707 | 37198 ft | 502 kts | 99° |
| 2026-05-04 23:00 | 47.44556 | 75.66946 | 37200 ft | 502 kts | 99° |
| 2026-05-04 23:00 | 47.43638 | 75.77062 | 37208 ft | 502 kts | 99° |
| 2026-05-04 23:01 | 47.42699 | 75.87298 | 37198 ft | 503 kts | 99° |
| 2026-05-04 23:01 | 47.41751 | 75.97532 | 37198 ft | 503 kts | 99° |
| 2026-05-04 23:02 | 47.40793 | 76.07763 | 37199 ft | 503 kts | 99° |
| 2026-05-04 23:02 | 47.39827 | 76.17995 | 37209 ft | 503 kts | 99° |
| 2026-05-04 23:03 | 47.38851 | 76.28229 | 37196 ft | 504 kts | 99° |
| 2026-05-04 23:03 | 47.37864 | 76.38464 | 37197 ft | 503 kts | 99° |
| 2026-05-04 23:04 | 47.36871 | 76.48676 | 37205 ft | 503 kts | 99° |
| 2026-05-04 23:04 | 47.35868 | 76.58895 | 37205 ft | 503 kts | 99° |
| 2026-05-04 23:05 | 47.34855 | 76.69112 | 37204 ft | 504 kts | 99° |
| 2026-05-04 23:05 | 47.33832 | 76.79342 | 37206 ft | 504 kts | 99° |
| 2026-05-04 23:06 | 47.32799 | 76.89569 | 37205 ft | 504 kts | 99° |
| 2026-05-04 23:06 | 47.31757 | 76.99796 | 37208 ft | 504 kts | 99° |
| 2026-05-04 23:07 | 47.30753 | 77.10037 | 37201 ft | 504 kts | 97° |
| 2026-05-04 23:07 | 47.30213 | 77.20324 | 37207 ft | 503 kts | 94° |
| 2026-05-04 23:08 | 47.29790 | 77.30613 | 37206 ft | 502 kts | 94° |
| 2026-05-04 23:08 | 47.29299 | 77.40805 | 37205 ft | 502 kts | 95° |
| 2026-05-04 23:09 | 47.28746 | 77.51070 | 37208 ft | 502 kts | 95° |
| 2026-05-04 23:09 | 47.28171 | 77.61323 | 37200 ft | 503 kts | 95° |
| 2026-05-04 23:10 | 47.27586 | 77.71593 | 37199 ft | 503 kts | 95° |
| 2026-05-04 23:10 | 47.26995 | 77.81854 | 37205 ft | 503 kts | 95° |
| 2026-05-04 23:11 | 47.26395 | 77.92127 | 37203 ft | 503 kts | 95° |
| 2026-05-04 23:11 | 47.25787 | 78.02405 | 37200 ft | 504 kts | 95° |
| 2026-05-04 23:12 | 47.25167 | 78.12699 | 37199 ft | 504 kts | 96° |
| 2026-05-04 23:12 | 47.24539 | 78.22973 | 37197 ft | 504 kts | 96° |
| 2026-05-04 23:13 | 47.23901 | 78.33261 | 37200 ft | 504 kts | 96° |
| 2026-05-04 23:13 | 47.23258 | 78.43484 | 37189 ft | 505 kts | 96° |
| 2026-05-04 23:14 | 47.22597 | 78.53850 | 37174 ft | 505 kts | 96° |
| 2026-05-04 23:14 | 47.21932 | 78.64104 | 37188 ft | 505 kts | 96° |
| 2026-05-04 23:15 | 47.21256 | 78.74401 | 37187 ft | 505 kts | 96° |
| 2026-05-04 23:15 | 47.20570 | 78.84699 | 37191 ft | 506 kts | 96° |
| 2026-05-04 23:16 | 47.19879 | 78.94960 | 37186 ft | 507 kts | 96° |
| 2026-05-04 23:16 | 47.19172 | 79.05291 | 37192 ft | 507 kts | 96° |
| 2026-05-04 23:17 | 47.18458 | 79.15590 | 37184 ft | 507 kts | 96° |
| 2026-05-04 23:17 | 47.17728 | 79.25839 | 37177 ft | 507 kts | 97° |
| 2026-05-04 23:18 | 47.16966 | 79.36159 | 37171 ft | 508 kts | 97° |
| 2026-05-04 23:18 | 47.16195 | 79.46483 | 37171 ft | 509 kts | 97° |
| 2026-05-04 23:19 | 47.15416 | 79.56827 | 37161 ft | 508 kts | 97° |
| 2026-05-04 23:19 | 47.14631 | 79.67151 | 37171 ft | 509 kts | 97° |
| 2026-05-04 23:20 | 47.13837 | 79.77491 | 37153 ft | 510 kts | 97° |
| 2026-05-04 23:20 | 47.13032 | 79.87841 | 37154 ft | 510 kts | 97° |
| 2026-05-04 23:21 | 47.12236 | 79.98222 | 37149 ft | 510 kts | 97° |
| 2026-05-04 23:21 | 47.11439 | 80.08580 | 37148 ft | 510 kts | 97° |
| 2026-05-04 23:22 | 47.10631 | 80.18942 | 37133 ft | 511 kts | 97° |
| 2026-05-04 23:22 | 47.09811 | 80.29312 | 37120 ft | 512 kts | 97° |
| 2026-05-04 23:23 | 47.08979 | 80.39690 | 37119 ft | 512 kts | 97° |
| 2026-05-04 23:23 | 47.08139 | 80.50056 | 37118 ft | 512 kts | 97° |
| 2026-05-04 23:24 | 47.07290 | 80.60419 | 37116 ft | 513 kts | 97° |
| 2026-05-04 23:24 | 47.06430 | 80.70802 | 37116 ft | 513 kts | 97° |
| 2026-05-04 23:25 | 47.05559 | 80.81199 | 37118 ft | 513 kts | 97° |
| 2026-05-04 23:25 | 47.04680 | 80.91575 | 37119 ft | 513 kts | 97° |
| 2026-05-04 23:26 | 47.03792 | 81.01948 | 37121 ft | 514 kts | 98° |
| 2026-05-04 23:26 | 47.02901 | 81.12294 | 37121 ft | 515 kts | 98° |
| 2026-05-04 23:27 | 47.01988 | 81.22705 | 37119 ft | 516 kts | 98° |
| 2026-05-04 23:27 | 47.01064 | 81.33130 | 37119 ft | 516 kts | 98° |
| 2026-05-04 23:28 | 47.00134 | 81.43541 | 37115 ft | 516 kts | 98° |
| 2026-05-04 23:28 | 46.99193 | 81.53959 | 37113 ft | 516 kts | 98° |
| 2026-05-04 23:29 | 46.98244 | 81.64369 | 37110 ft | 516 kts | 98° |
| 2026-05-04 23:29 | 46.97284 | 81.74788 | 37110 ft | 516 kts | 98° |
| 2026-05-04 23:30 | 46.96316 | 81.85191 | 37114 ft | 517 kts | 98° |
| 2026-05-04 23:30 | 46.95337 | 81.95637 | 37113 ft | 518 kts | 98° |
| 2026-05-04 23:31 | 46.94341 | 82.06078 | 37110 ft | 518 kts | 99° |
| 2026-05-04 23:31 | 46.93324 | 82.16522 | 37110 ft | 518 kts | 99° |
| 2026-05-04 23:32 | 46.92302 | 82.26960 | 37118 ft | 519 kts | 99° |
| 2026-05-04 23:32 | 46.91276 | 82.37360 | 37114 ft | 520 kts | 99° |
| 2026-05-04 23:33 | 46.90233 | 82.47835 | 37112 ft | 520 kts | 99° |
| 2026-05-04 23:33 | 46.89179 | 82.58323 | 37111 ft | 520 kts | 99° |
| 2026-05-04 23:34 | 46.88117 | 82.68789 | 37121 ft | 521 kts | 99° |
| 2026-05-04 23:34 | 46.87045 | 82.79273 | 37117 ft | 522 kts | 99° |
| 2026-05-04 23:35 | 46.85298 | 82.89544 | 37110 ft | 520 kts | 115° |
| 2026-05-04 23:35 | 46.81840 | 82.98809 | 37111 ft | 522 kts | 124° |
| 2026-05-04 23:36 | 46.77949 | 83.07820 | 37130 ft | 527 kts | 125° |
| 2026-05-04 23:36 | 46.73986 | 83.16849 | 37113 ft | 529 kts | 125° |
| 2026-05-04 23:37 | 46.70039 | 83.25913 | 37118 ft | 530 kts | 125° |
| 2026-05-04 23:37 | 46.66129 | 83.34927 | 37108 ft | 530 kts | 125° |
| 2026-05-04 23:38 | 46.62038 | 83.43842 | 37107 ft | 528 kts | 129° |
| 2026-05-04 23:38 | 46.57637 | 83.52395 | 37095 ft | 529 kts | 130° |
| 2026-05-04 23:39 | 46.53208 | 83.60958 | 37102 ft | 529 kts | 130° |
| 2026-05-04 23:39 | 46.48825 | 83.69561 | 37105 ft | 529 kts | 130° |
| 2026-05-04 23:40 | 46.44461 | 83.78181 | 37097 ft | 529 kts | 130° |
| 2026-05-04 23:40 | 46.40095 | 83.86790 | 37080 ft | 529 kts | 130° |
| 2026-05-04 23:41 | 46.35751 | 83.95322 | 37084 ft | 530 kts | 130° |
| 2026-05-04 23:41 | 46.31359 | 84.03921 | 37076 ft | 532 kts | 130° |
| 2026-05-04 23:42 | 46.26944 | 84.12534 | 37065 ft | 535 kts | 131° |
| 2026-05-04 23:42 | 46.22497 | 84.21172 | 37056 ft | 535 kts | 131° |
| 2026-05-04 23:43 | 46.18028 | 84.29770 | 37031 ft | 534 kts | 131° |
| 2026-05-04 23:43 | 46.14313 | 84.36895 | 37029 ft | 534 kts | 131° |
| 2026-05-04 23:44 | 46.09852 | 84.45436 | 37003 ft | 533 kts | 131° |
| 2026-05-04 23:44 | 46.05414 | 84.53911 | 37005 ft | 527 kts | 132° |
| 2026-05-04 23:45 | 46.01004 | 84.62315 | 36990 ft | 524 kts | 132° |
| 2026-05-04 23:45 | 45.96622 | 84.70639 | 36987 ft | 521 kts | 132° |
| 2026-05-04 23:46 | 45.92235 | 84.78946 | 36977 ft | 521 kts | 132° |
| 2026-05-04 23:46 | 45.87851 | 84.87223 | 36968 ft | 521 kts | 132° |
| 2026-05-04 23:47 | 45.83456 | 84.95498 | 36970 ft | 521 kts | 133° |
| 2026-05-04 23:47 | 45.79039 | 85.03788 | 36955 ft | 524 kts | 133° |
| 2026-05-04 23:48 | 45.74608 | 85.12080 | 36952 ft | 524 kts | 133° |
| 2026-05-04 23:48 | 45.70171 | 85.20359 | 36948 ft | 524 kts | 133° |
| 2026-05-04 23:49 | 45.65735 | 85.28651 | 36943 ft | 525 kts | 133° |
| 2026-05-04 23:49 | 45.61295 | 85.36968 | 36945 ft | 527 kts | 133° |
| 2026-05-04 23:50 | 45.56834 | 85.45294 | 36944 ft | 528 kts | 133° |
| 2026-05-04 23:50 | 45.52363 | 85.53610 | 36947 ft | 528 kts | 133° |
| 2026-05-04 23:51 | 45.47917 | 85.61856 | 36937 ft | 528 kts | 134° |
| 2026-05-04 23:51 | 45.43428 | 85.70154 | 36949 ft | 528 kts | 134° |
| 2026-05-04 23:52 | 45.38936 | 85.78434 | 36949 ft | 529 kts | 134° |
| 2026-05-04 23:52 | 45.34433 | 85.86711 | 36954 ft | 529 kts | 134° |
| 2026-05-04 23:53 | 45.29916 | 85.94991 | 36937 ft | 528 kts | 134° |
| 2026-05-04 23:53 | 45.25432 | 86.03184 | 36956 ft | 529 kts | 134° |
| 2026-05-04 23:54 | 45.20915 | 86.11415 | 36961 ft | 528 kts | 134° |
| 2026-05-04 23:54 | 45.16388 | 86.19641 | 36967 ft | 528 kts | 134° |
| 2026-05-04 23:55 | 45.11862 | 86.27840 | 36966 ft | 528 kts | 134° |
| 2026-05-04 23:56 | 45.05067 | 86.40107 | 36973 ft | 528 kts | 134° |
| 2026-05-04 23:56 | 45.00528 | 86.48270 | 36975 ft | 528 kts | 134° |
| 2026-05-04 23:57 | 44.95983 | 86.56423 | 36980 ft | 528 kts | 134° |
| 2026-05-04 23:57 | 44.91444 | 86.64541 | 36986 ft | 525 kts | 135° |
| 2026-05-04 23:58 | 44.86925 | 86.72600 | 36993 ft | 524 kts | 135° |
| 2026-05-04 23:58 | 44.82402 | 86.80644 | 36995 ft | 524 kts | 135° |
| 2026-05-04 23:59 | 44.77837 | 86.88625 | 37006 ft | 523 kts | 136° |
| 2026-05-04 23:59 | 44.73243 | 86.96545 | 37007 ft | 522 kts | 136° |
| 2026-05-05 00:00 | 44.68658 | 87.04463 | 37010 ft | 522 kts | 136° |
| 2026-05-05 00:00 | 44.64092 | 87.12361 | 37016 ft | 522 kts | 136° |
| 2026-05-05 00:01 | 44.59503 | 87.20284 | 37002 ft | 522 kts | 136° |
| 2026-05-05 00:01 | 44.54914 | 87.28184 | 37012 ft | 521 kts | 136° |
| 2026-05-05 00:02 | 44.50440 | 87.36168 | 37018 ft | 522 kts | 134° |
| 2026-05-05 00:02 | 44.46065 | 87.44297 | 37016 ft | 522 kts | 134° |
| 2026-05-05 00:03 | 44.41680 | 87.52399 | 37015 ft | 522 kts | 134° |
| 2026-05-05 00:03 | 44.37268 | 87.60460 | 37007 ft | 521 kts | 135° |
| 2026-05-05 00:04 | 44.32881 | 87.68428 | 37013 ft | 520 kts | 135° |
| 2026-05-05 00:04 | 44.28509 | 87.76493 | 37013 ft | 521 kts | 134° |
| 2026-05-05 00:05 | 44.24174 | 87.84592 | 37013 ft | 521 kts | 134° |
| 2026-05-05 00:05 | 44.20294 | 87.93194 | 37003 ft | 531 kts | 120° |
| 2026-05-05 00:05 | 44.19056 | 87.98070 | 37018 ft | 537 kts | 109° |
| 2026-05-05 00:06 | 44.18441 | 88.03208 | 37024 ft | 542 kts | 98° |
| 2026-05-05 00:06 | 44.18509 | 88.08464 | 37021 ft | 544 kts | 86° |
| 2026-05-05 00:06 | 44.19100 | 88.13661 | 37028 ft | 543 kts | 82° |
| 2026-05-05 00:07 | 44.20612 | 88.23962 | 37016 ft | 541 kts | 81° |
| 2026-05-05 00:07 | 44.22199 | 88.34193 | 37006 ft | 540 kts | 81° |
| 2026-05-05 00:08 | 44.23743 | 88.44435 | 37006 ft | 540 kts | 81° |
| 2026-05-05 00:08 | 44.25247 | 88.54689 | 36996 ft | 540 kts | 81° |
| 2026-05-05 00:09 | 44.26737 | 88.64983 | 36987 ft | 541 kts | 81° |
| 2026-05-05 00:09 | 44.28209 | 88.75211 | 36988 ft | 541 kts | 81° |
| 2026-05-05 00:10 | 44.29682 | 88.85513 | 36981 ft | 541 kts | 81° |
| 2026-05-05 00:10 | 44.31148 | 88.95829 | 36967 ft | 542 kts | 82° |
| 2026-05-05 00:11 | 44.32608 | 89.06168 | 36966 ft | 542 kts | 82° |
| 2026-05-05 00:11 | 44.34056 | 89.16503 | 36962 ft | 542 kts | 82° |
| 2026-05-05 00:12 | 44.35497 | 89.26848 | 36953 ft | 543 kts | 82° |
| 2026-05-05 00:12 | 44.36929 | 89.37206 | 36953 ft | 543 kts | 82° |
| 2026-05-05 00:13 | 44.38356 | 89.47601 | 36947 ft | 543 kts | 82° |
| 2026-05-05 00:13 | 44.39761 | 89.57906 | 36948 ft | 543 kts | 82° |
| 2026-05-05 00:14 | 44.40654 | 89.68338 | 36948 ft | 538 kts | 96° |
| 2026-05-05 00:14 | 44.40259 | 89.73540 | 36939 ft | 532 kts | 107° |
| 2026-05-05 00:14 | 44.39383 | 89.78559 | 36931 ft | 532 kts | 111° |
| 2026-05-05 00:15 | 44.37275 | 89.88458 | 36941 ft | 536 kts | 113° |
| 2026-05-05 00:15 | 44.35023 | 89.98436 | 36944 ft | 538 kts | 113° |
| 2026-05-05 00:16 | 44.32799 | 90.08415 | 36946 ft | 538 kts | 113° |
| 2026-05-05 00:16 | 44.30606 | 90.18362 | 36940 ft | 538 kts | 113° |
| 2026-05-05 00:17 | 44.28401 | 90.28365 | 36945 ft | 538 kts | 113° |
| 2026-05-05 00:17 | 44.26201 | 90.38295 | 36940 ft | 538 kts | 113° |
| 2026-05-05 00:18 | 44.23972 | 90.48301 | 36938 ft | 539 kts | 113° |
| 2026-05-05 00:18 | 44.21737 | 90.58284 | 36929 ft | 539 kts | 113° |
| 2026-05-05 00:19 | 44.19490 | 90.68270 | 36936 ft | 540 kts | 113° |
| 2026-05-05 00:19 | 44.17248 | 90.78189 | 36935 ft | 540 kts | 113° |
| 2026-05-05 00:20 | 44.14979 | 90.88186 | 36933 ft | 542 kts | 114° |
| 2026-05-05 00:20 | 44.12697 | 90.98192 | 36936 ft | 542 kts | 114° |
| 2026-05-05 00:21 | 44.10413 | 91.08183 | 36935 ft | 542 kts | 114° |
| 2026-05-05 00:21 | 44.08113 | 91.18186 | 36933 ft | 542 kts | 114° |
| 2026-05-05 00:22 | 44.05801 | 91.28186 | 36931 ft | 543 kts | 114° |
| 2026-05-05 00:22 | 44.03480 | 91.38184 | 36930 ft | 543 kts | 114° |
| 2026-05-05 00:23 | 44.01150 | 91.48176 | 36921 ft | 543 kts | 114° |
| 2026-05-05 00:23 | 43.98801 | 91.58097 | 36931 ft | 546 kts | 114° |
| 2026-05-05 00:24 | 43.96408 | 91.68138 | 36923 ft | 548 kts | 114° |
| 2026-05-05 00:24 | 43.94011 | 91.78174 | 36923 ft | 548 kts | 114° |
| 2026-05-05 00:25 | 43.91608 | 91.88201 | 36924 ft | 548 kts | 114° |
| 2026-05-05 00:25 | 43.89192 | 91.98238 | 36917 ft | 548 kts | 114° |
| 2026-05-05 00:26 | 43.86773 | 92.08247 | 36925 ft | 548 kts | 115° |
| 2026-05-05 00:26 | 43.84346 | 92.18240 | 36921 ft | 547 kts | 115° |
| 2026-05-05 00:27 | 43.81907 | 92.28239 | 36919 ft | 548 kts | 115° |
| 2026-05-05 00:27 | 43.79475 | 92.38168 | 36912 ft | 550 kts | 115° |
| 2026-05-05 00:28 | 43.77001 | 92.48219 | 36916 ft | 552 kts | 115° |
| 2026-05-05 00:28 | 43.74514 | 92.58278 | 36913 ft | 553 kts | 115° |
| 2026-05-05 00:29 | 43.72019 | 92.68333 | 36905 ft | 552 kts | 115° |
| 2026-05-05 00:29 | 43.69937 | 92.76689 | 36908 ft | 553 kts | 115° |
| 2026-05-05 00:30 | 43.67422 | 92.86743 | 36913 ft | 554 kts | 115° |
| 2026-05-05 00:30 | 43.64895 | 92.96798 | 36916 ft | 554 kts | 115° |
| 2026-05-05 00:31 | 43.62408 | 93.06871 | 36911 ft | 555 kts | 114° |
| 2026-05-05 00:31 | 43.60016 | 93.16978 | 36919 ft | 554 kts | 114° |
| 2026-05-05 00:32 | 43.57615 | 93.27090 | 36918 ft | 554 kts | 114° |
| 2026-05-05 00:32 | 43.55194 | 93.37153 | 36916 ft | 557 kts | 114° |
| 2026-05-05 00:33 | 43.52737 | 93.47281 | 36904 ft | 557 kts | 114° |
| 2026-05-05 00:33 | 43.50268 | 93.57407 | 36915 ft | 557 kts | 114° |
| 2026-05-05 00:34 | 43.47793 | 93.67520 | 36912 ft | 557 kts | 114° |
| 2026-05-05 00:34 | 43.45306 | 93.77639 | 36912 ft | 557 kts | 115° |
| 2026-05-05 00:35 | 43.42813 | 93.87739 | 36905 ft | 558 kts | 115° |
| 2026-05-05 00:35 | 43.40299 | 93.97874 | 36911 ft | 559 kts | 115° |
| 2026-05-05 00:36 | 43.37778 | 94.07995 | 36912 ft | 559 kts | 115° |
| 2026-05-05 00:36 | 43.35248 | 94.18103 | 36884 ft | 560 kts | 115° |
| 2026-05-05 00:37 | 43.32705 | 94.28235 | 36906 ft | 564 kts | 115° |
| 2026-05-05 00:37 | 43.30138 | 94.38401 | 36903 ft | 567 kts | 115° |
| 2026-05-05 00:38 | 43.27550 | 94.48613 | 36892 ft | 566 kts | 115° |
| 2026-05-05 00:38 | 43.24953 | 94.58819 | 36869 ft | 566 kts | 115° |
| 2026-05-05 00:39 | 43.22349 | 94.69006 | 36876 ft | 565 kts | 115° |
| 2026-05-05 00:39 | 43.19741 | 94.79166 | 36845 ft | 565 kts | 115° |
| 2026-05-05 00:40 | 43.17125 | 94.89310 | 36823 ft | 565 kts | 115° |
| 2026-05-05 00:40 | 43.14485 | 94.99442 | 36827 ft | 564 kts | 117° |
| 2026-05-05 00:40 | 43.12814 | 95.04268 | 36810 ft | 555 kts | 128° |
| 2026-05-05 00:41 | 43.10632 | 95.08548 | 36803 ft | 544 kts | 140° |
| 2026-05-05 00:41 | 43.07966 | 95.12139 | 36806 ft | 531 kts | 152° |
| 2026-05-05 00:41 | 43.05026 | 95.15174 | 36791 ft | 529 kts | 155° |
| 2026-05-05 00:42 | 42.98966 | 95.20813 | 36793 ft | 532 kts | 158° |
| 2026-05-05 00:42 | 42.92777 | 95.26410 | 36792 ft | 534 kts | 157° |
| 2026-05-05 00:43 | 42.86602 | 95.32070 | 36786 ft | 535 kts | 157° |
| 2026-05-05 00:43 | 42.80431 | 95.37772 | 36780 ft | 536 kts | 157° |
| 2026-05-05 00:44 | 42.74268 | 95.43465 | 36779 ft | 536 kts | 157° |
| 2026-05-05 00:44 | 42.68095 | 95.49153 | 36747 ft | 535 kts | 158° |
| 2026-05-05 00:45 | 42.61915 | 95.54829 | 36777 ft | 536 kts | 158° |
| 2026-05-05 00:45 | 42.55724 | 95.60499 | 36775 ft | 537 kts | 158° |
| 2026-05-05 00:46 | 42.49526 | 95.66163 | 36779 ft | 537 kts | 158° |
| 2026-05-05 00:46 | 42.43634 | 95.72429 | 36780 ft | 554 kts | 143° |
| 2026-05-05 00:46 | 42.41205 | 95.76551 | 36784 ft | 567 kts | 131° |
| 2026-05-05 00:47 | 42.39334 | 95.81293 | 36800 ft | 577 kts | 118° |
| 2026-05-05 00:47 | 42.38104 | 95.86505 | 36807 ft | 583 kts | 106° |
| 2026-05-05 00:47 | 42.37529 | 95.91940 | 36812 ft | 586 kts | 97° |
| 2026-05-05 00:48 | 42.37309 | 96.02899 | 36811 ft | 581 kts | 92° |
| 2026-05-05 00:48 | 42.37287 | 96.13819 | 36812 ft | 579 kts | 93° |
| 2026-05-05 00:49 | 42.37086 | 96.24700 | 36817 ft | 579 kts | 95° |
| 2026-05-05 00:49 | 42.36761 | 96.35584 | 36817 ft | 580 kts | 95° |
| 2026-05-05 00:50 | 42.36403 | 96.46487 | 36813 ft | 580 kts | 95° |
| 2026-05-05 00:50 | 42.36044 | 96.57399 | 36811 ft | 581 kts | 95° |
| 2026-05-05 00:51 | 42.35682 | 96.68318 | 36807 ft | 581 kts | 95° |
| 2026-05-05 00:51 | 42.35314 | 96.79178 | 36803 ft | 581 kts | 95° |
| 2026-05-05 00:52 | 42.34932 | 96.90099 | 36796 ft | 581 kts | 95° |
| 2026-05-05 00:52 | 42.34540 | 97.01020 | 36784 ft | 581 kts | 95° |
| 2026-05-05 00:53 | 42.34137 | 97.11941 | 36783 ft | 581 kts | 95° |
| 2026-05-05 00:53 | 42.33724 | 97.22857 | 36776 ft | 581 kts | 95° |
| 2026-05-05 00:54 | 42.33303 | 97.33708 | 36764 ft | 581 kts | 95° |
| 2026-05-05 00:54 | 42.32869 | 97.44635 | 36765 ft | 581 kts | 95° |
| 2026-05-05 00:55 | 42.32425 | 97.55547 | 36762 ft | 581 kts | 95° |
| 2026-05-05 00:55 | 42.31970 | 97.66459 | 36754 ft | 581 kts | 95° |
| 2026-05-05 00:56 | 42.31506 | 97.77357 | 36742 ft | 581 kts | 95° |
| 2026-05-05 00:56 | 42.31032 | 97.88255 | 36744 ft | 581 kts | 95° |
| 2026-05-05 00:57 | 42.30550 | 97.99076 | 36736 ft | 581 kts | 95° |
| 2026-05-05 00:57 | 42.30056 | 98.09947 | 36730 ft | 580 kts | 95° |
| 2026-05-05 00:58 | 42.29552 | 98.20805 | 36722 ft | 579 kts | 95° |
| 2026-05-05 00:58 | 42.29039 | 98.31671 | 36723 ft | 579 kts | 96° |
| 2026-05-05 00:59 | 42.28499 | 98.42517 | 36717 ft | 579 kts | 96° |
| 2026-05-05 00:59 | 42.27932 | 98.53352 | 36706 ft | 578 kts | 96° |
| 2026-05-05 01:00 | 42.27355 | 98.64208 | 36704 ft | 578 kts | 96° |
| 2026-05-05 01:00 | 42.26777 | 98.74963 | 36711 ft | 579 kts | 96° |
| 2026-05-05 01:01 | 42.26185 | 98.85819 | 36696 ft | 579 kts | 96° |
| 2026-05-05 01:01 | 42.25583 | 98.96669 | 36681 ft | 579 kts | 96° |
| 2026-05-05 01:02 | 42.24970 | 99.07520 | 36682 ft | 579 kts | 96° |
| 2026-05-05 01:02 | 42.24346 | 99.18377 | 36672 ft | 580 kts | 96° |
| 2026-05-05 01:03 | 42.23713 | 99.29219 | 36674 ft | 580 kts | 96° |
| 2026-05-05 01:03 | 42.23070 | 99.40062 | 36655 ft | 578 kts | 96° |
| 2026-05-05 01:04 | 42.22421 | 99.50806 | 36657 ft | 578 kts | 96° |
| 2026-05-05 01:04 | 42.21427 | 99.66977 | 36652 ft | 576 kts | 97° |
| 2026-05-05 01:05 | 42.20752 | 99.77754 | 36651 ft | 576 kts | 97° |
| 2026-05-05 01:05 | 42.20068 | 99.88517 | 36644 ft | 576 kts | 97° |
| 2026-05-05 01:06 | 42.19374 | 99.99262 | 36642 ft | 574 kts | 97° |
| 2026-05-05 01:06 | 42.18671 | 100.10006 | 36641 ft | 574 kts | 97° |
| 2026-05-05 01:07 | 42.17957 | 100.20740 | 36638 ft | 575 kts | 97° |
| 2026-05-05 01:07 | 42.17233 | 100.31474 | 36636 ft | 574 kts | 97° |
| 2026-05-05 01:08 | 42.16502 | 100.42172 | 36634 ft | 573 kts | 97° |
| 2026-05-05 01:08 | 42.15765 | 100.52812 | 36633 ft | 574 kts | 97° |
| 2026-05-05 01:09 | 42.15012 | 100.63529 | 36631 ft | 573 kts | 97° |
| 2026-05-05 01:09 | 42.14270 | 100.73953 | 36628 ft | 572 kts | 97° |
| 2026-05-05 01:10 | 42.13500 | 100.84644 | 36625 ft | 572 kts | 97° |
| 2026-05-05 01:10 | 42.12727 | 100.95228 | 36625 ft | 572 kts | 97° |
| 2026-05-05 01:11 | 42.11532 | 101.05767 | 36631 ft | 569 kts | 110° |
| 2026-05-05 01:11 | 42.09095 | 101.15895 | 36624 ft | 571 kts | 113° |
| 2026-05-05 01:12 | 42.06418 | 101.26003 | 36622 ft | 573 kts | 114° |
| 2026-05-05 01:12 | 42.03713 | 101.36102 | 36626 ft | 574 kts | 114° |
| 2026-05-05 01:13 | 42.01022 | 101.46220 | 36625 ft | 574 kts | 114° |
| 2026-05-05 01:13 | 41.98339 | 101.56329 | 36628 ft | 574 kts | 114° |
| 2026-05-05 01:14 | 41.95662 | 101.66385 | 36630 ft | 574 kts | 114° |
| 2026-05-05 01:14 | 41.92963 | 101.76473 | 36631 ft | 573 kts | 114° |
| 2026-05-05 01:15 | 41.90242 | 101.86600 | 36630 ft | 573 kts | 114° |
| 2026-05-05 01:15 | 41.87546 | 101.96592 | 36631 ft | 573 kts | 114° |
| 2026-05-05 01:16 | 41.84825 | 102.06634 | 36633 ft | 573 kts | 114° |
| 2026-05-05 01:16 | 41.82539 | 102.15042 | 36627 ft | 571 kts | 114° |
| 2026-05-05 01:17 | 41.79829 | 102.24970 | 36631 ft | 570 kts | 114° |
| 2026-05-05 01:17 | 41.77093 | 102.34956 | 36631 ft | 570 kts | 114° |
| 2026-05-05 01:18 | 41.74350 | 102.44926 | 36631 ft | 570 kts | 114° |
| 2026-05-05 01:18 | 41.71599 | 102.54882 | 36602 ft | 569 kts | 114° |
| 2026-05-05 01:19 | 41.68839 | 102.64836 | 36629 ft | 571 kts | 114° |
| 2026-05-05 01:19 | 41.66067 | 102.74799 | 36626 ft | 572 kts | 114° |
| 2026-05-05 01:20 | 41.63286 | 102.84749 | 36630 ft | 571 kts | 114° |
| 2026-05-05 01:20 | 41.60504 | 102.94665 | 36631 ft | 570 kts | 114° |
| 2026-05-05 01:21 | 41.57716 | 103.04578 | 36633 ft | 570 kts | 114° |
| 2026-05-05 01:21 | 41.54916 | 103.14474 | 36633 ft | 570 kts | 114° |
| 2026-05-05 01:22 | 41.52106 | 103.24359 | 36630 ft | 569 kts | 114° |
| 2026-05-05 01:22 | 41.49295 | 103.34216 | 36630 ft | 568 kts | 114° |
| 2026-05-05 01:23 | 41.46495 | 103.44002 | 36633 ft | 568 kts | 114° |
| 2026-05-05 01:23 | 41.43667 | 103.53844 | 36629 ft | 568 kts | 114° |
| 2026-05-05 01:24 | 41.40839 | 103.63649 | 36628 ft | 565 kts | 114° |
| 2026-05-05 01:24 | 41.38010 | 103.73423 | 36627 ft | 565 kts | 114° |
| 2026-05-05 01:25 | 41.35177 | 103.83173 | 36624 ft | 566 kts | 114° |
| 2026-05-05 01:25 | 41.32328 | 103.92940 | 36631 ft | 565 kts | 114° |
| 2026-05-05 01:26 | 41.29480 | 104.02662 | 36630 ft | 563 kts | 114° |
| 2026-05-05 01:26 | 41.26642 | 104.12324 | 36631 ft | 563 kts | 114° |
| 2026-05-05 01:27 | 41.23782 | 104.22021 | 36641 ft | 563 kts | 114° |
| 2026-05-05 01:27 | 41.20921 | 104.31683 | 36638 ft | 561 kts | 114° |
| 2026-05-05 01:28 | 41.18063 | 104.41302 | 36633 ft | 560 kts | 114° |
| 2026-05-05 01:28 | 41.15196 | 104.50915 | 36634 ft | 560 kts | 114° |
| 2026-05-05 01:29 | 41.12322 | 104.60516 | 36636 ft | 560 kts | 114° |
| 2026-05-05 01:29 | 41.09435 | 104.70130 | 36637 ft | 560 kts | 114° |
| 2026-05-05 01:30 | 41.06373 | 104.79635 | 36641 ft | 559 kts | 117° |
| 2026-05-05 01:30 | 41.03131 | 104.89006 | 36644 ft | 560 kts | 118° |
| 2026-05-05 01:31 | 40.99905 | 104.98356 | 36630 ft | 559 kts | 117° |
| 2026-05-05 01:31 | 40.96703 | 105.07735 | 36653 ft | 559 kts | 117° |
| 2026-05-05 01:32 | 40.93508 | 105.17115 | 36663 ft | 559 kts | 117° |
| 2026-05-05 01:32 | 40.90309 | 105.26477 | 36664 ft | 559 kts | 117° |
| 2026-05-05 01:33 | 40.87102 | 105.35824 | 36663 ft | 557 kts | 117° |
| 2026-05-05 01:33 | 40.83895 | 105.45137 | 36669 ft | 557 kts | 117° |
| 2026-05-05 01:34 | 40.80684 | 105.54430 | 36667 ft | 556 kts | 117° |
| 2026-05-05 01:34 | 40.77480 | 105.63673 | 36672 ft | 556 kts | 117° |
| 2026-05-05 01:35 | 40.74261 | 105.72925 | 36674 ft | 555 kts | 117° |
| 2026-05-05 01:35 | 40.71033 | 105.82179 | 36674 ft | 554 kts | 117° |
| 2026-05-05 01:36 | 40.67805 | 105.91400 | 36675 ft | 554 kts | 117° |
| 2026-05-05 01:36 | 40.64565 | 106.00628 | 36676 ft | 555 kts | 117° |
| 2026-05-05 01:37 | 40.61320 | 106.09836 | 36676 ft | 554 kts | 117° |
| 2026-05-05 01:37 | 40.58075 | 106.19018 | 36675 ft | 554 kts | 117° |
| 2026-05-05 01:38 | 40.54817 | 106.28205 | 36678 ft | 554 kts | 117° |
| 2026-05-05 01:38 | 40.51551 | 106.37388 | 36681 ft | 554 kts | 117° |
| 2026-05-05 01:39 | 40.48283 | 106.46542 | 36686 ft | 552 kts | 118° |
| 2026-05-05 01:39 | 40.45018 | 106.55663 | 36684 ft | 552 kts | 118° |
| 2026-05-05 01:40 | 40.41741 | 106.64788 | 36683 ft | 552 kts | 118° |
| 2026-05-05 01:40 | 40.38454 | 106.73910 | 36684 ft | 552 kts | 118° |
| 2026-05-05 01:41 | 40.35171 | 106.82995 | 36680 ft | 551 kts | 118° |
| 2026-05-05 01:41 | 40.32179 | 106.92171 | 36671 ft | 551 kts | 107° |
| 2026-05-05 01:42 | 40.31389 | 106.97068 | 36677 ft | 550 kts | 96° |
| 2026-05-05 01:42 | 40.31263 | 107.02052 | 36679 ft | 545 kts | 85° |
| 2026-05-05 01:42 | 40.32214 | 107.11837 | 36676 ft | 537 kts | 79° |
| 2026-05-05 01:43 | 40.33443 | 107.21455 | 36672 ft | 534 kts | 78° |
| 2026-05-05 01:43 | 40.34680 | 107.31037 | 36673 ft | 533 kts | 79° |
| 2026-05-05 01:44 | 40.35875 | 107.40644 | 36675 ft | 534 kts | 79° |
| 2026-05-05 01:44 | 40.37041 | 107.50242 | 36675 ft | 532 kts | 79° |
| 2026-05-05 01:45 | 40.38193 | 107.59826 | 36675 ft | 532 kts | 79° |
| 2026-05-05 01:45 | 40.39339 | 107.69412 | 36681 ft | 532 kts | 79° |
| 2026-05-05 01:46 | 40.40480 | 107.79019 | 36678 ft | 532 kts | 79° |
| 2026-05-05 01:46 | 40.41609 | 107.88591 | 36684 ft | 532 kts | 79° |
| 2026-05-05 01:47 | 40.42728 | 107.98145 | 36681 ft | 532 kts | 79° |
| 2026-05-05 01:47 | 40.43842 | 108.07743 | 36682 ft | 532 kts | 80° |
| 2026-05-05 01:48 | 40.44944 | 108.17339 | 36684 ft | 532 kts | 80° |
| 2026-05-05 01:48 | 40.46040 | 108.26945 | 36687 ft | 532 kts | 80° |
| 2026-05-05 01:49 | 40.47129 | 108.36554 | 36684 ft | 532 kts | 80° |
| 2026-05-05 01:49 | 40.48210 | 108.46177 | 36697 ft | 532 kts | 80° |
| 2026-05-05 01:50 | 40.49281 | 108.55783 | 36692 ft | 531 kts | 80° |
| 2026-05-05 01:50 | 40.50345 | 108.65394 | 36691 ft | 531 kts | 80° |
| 2026-05-05 01:51 | 40.51395 | 108.74949 | 36700 ft | 531 kts | 80° |
| 2026-05-05 01:51 | 40.52441 | 108.84556 | 36700 ft | 530 kts | 80° |
| 2026-05-05 01:52 | 40.53476 | 108.94137 | 36705 ft | 529 kts | 80° |
| 2026-05-05 01:52 | 40.54505 | 109.03719 | 36708 ft | 529 kts | 80° |
| 2026-05-05 01:53 | 40.55525 | 109.13298 | 36718 ft | 529 kts | 80° |
| 2026-05-05 01:53 | 40.56533 | 109.22864 | 36713 ft | 527 kts | 80° |
| 2026-05-05 01:54 | 40.57533 | 109.32403 | 36719 ft | 527 kts | 80° |
| 2026-05-05 01:54 | 40.58527 | 109.41971 | 36725 ft | 528 kts | 80° |
| 2026-05-05 01:55 | 40.59511 | 109.51533 | 36724 ft | 527 kts | 80° |
| 2026-05-05 01:55 | 40.60486 | 109.61084 | 36730 ft | 526 kts | 80° |
| 2026-05-05 01:56 | 40.61444 | 109.70553 | 36735 ft | 526 kts | 80° |
| 2026-05-05 01:56 | 40.62403 | 109.80093 | 36751 ft | 526 kts | 80° |
| 2026-05-05 01:57 | 40.63351 | 109.89628 | 36740 ft | 524 kts | 80° |
| 2026-05-05 01:57 | 40.64137 | 109.99155 | 36766 ft | 526 kts | 87° |
| 2026-05-05 01:58 | 40.64218 | 110.08822 | 36752 ft | 530 kts | 88° |
| 2026-05-05 01:58 | 40.64159 | 110.18543 | 36749 ft | 531 kts | 89° |
| 2026-05-05 01:59 | 40.64075 | 110.28254 | 36760 ft | 530 kts | 89° |
| 2026-05-05 01:59 | 40.64000 | 110.37946 | 36763 ft | 529 kts | 89° |
| 2026-05-05 02:00 | 40.63928 | 110.47644 | 36787 ft | 530 kts | 89° |
| 2026-05-05 02:00 | 40.63862 | 110.55690 | 36779 ft | 528 kts | 88° |
| 2026-05-05 02:01 | 40.63774 | 110.65372 | 36775 ft | 528 kts | 89° |
| 2026-05-05 02:01 | 40.63683 | 110.75042 | 36786 ft | 528 kts | 89° |
| 2026-05-05 02:02 | 40.63579 | 110.84683 | 36786 ft | 525 kts | 89° |
| 2026-05-05 02:02 | 40.63470 | 110.94298 | 36794 ft | 525 kts | 89° |
| 2026-05-05 02:03 | 40.63354 | 111.03935 | 36791 ft | 525 kts | 89° |
| 2026-05-05 02:03 | 40.63229 | 111.13559 | 36790 ft | 525 kts | 89° |
| 2026-05-05 02:04 | 40.63097 | 111.23131 | 36787 ft | 525 kts | 89° |
| 2026-05-05 02:04 | 40.62955 | 111.32763 | 36789 ft | 526 kts | 89° |
| 2026-05-05 02:05 | 40.62805 | 111.42394 | 36789 ft | 526 kts | 89° |
| 2026-05-05 02:05 | 40.62647 | 111.52039 | 36789 ft | 526 kts | 89° |
| 2026-05-05 02:06 | 40.62483 | 111.61615 | 36799 ft | 526 kts | 89° |
| 2026-05-05 02:06 | 40.62310 | 111.71243 | 36799 ft | 526 kts | 89° |
| 2026-05-05 02:07 | 40.62128 | 111.80880 | 36801 ft | 526 kts | 90° |
| 2026-05-05 02:07 | 40.61939 | 111.90479 | 36797 ft | 523 kts | 90° |
| 2026-05-05 02:08 | 40.61763 | 112.00051 | 36791 ft | 523 kts | 90° |
| 2026-05-05 02:08 | 40.61550 | 112.09569 | 36796 ft | 523 kts | 90° |
| 2026-05-05 02:09 | 40.61330 | 112.19140 | 36797 ft | 523 kts | 90° |
| 2026-05-05 02:09 | 40.61106 | 112.28728 | 36804 ft | 523 kts | 90° |
| 2026-05-05 02:10 | 40.60876 | 112.38303 | 36802 ft | 525 kts | 90° |
| 2026-05-05 02:10 | 40.60638 | 112.47905 | 36797 ft | 525 kts | 91° |
| 2026-05-05 02:11 | 40.60257 | 112.57536 | 36792 ft | 528 kts | 94° |
| 2026-05-05 02:11 | 40.59650 | 112.67167 | 36789 ft | 529 kts | 94° |
| 2026-05-05 02:12 | 40.58610 | 112.81633 | 36783 ft | 529 kts | 97° |
| 2026-05-05 02:13 | 40.57853 | 112.91282 | 36775 ft | 531 kts | 95° |
| 2026-05-05 02:13 | 40.57215 | 113.00893 | 36774 ft | 531 kts | 95° |
| 2026-05-05 02:14 | 40.56579 | 113.10621 | 36768 ft | 530 kts | 95° |
| 2026-05-05 02:14 | 40.55933 | 113.20211 | 36768 ft | 528 kts | 95° |
| 2026-05-05 02:15 | 40.55271 | 113.29820 | 36767 ft | 527 kts | 95° |
| 2026-05-05 02:15 | 40.54600 | 113.39431 | 36765 ft | 527 kts | 96° |
| 2026-05-05 02:16 | 40.53922 | 113.49021 | 36771 ft | 526 kts | 96° |
| 2026-05-05 02:16 | 40.53237 | 113.58589 | 36763 ft | 526 kts | 96° |
| 2026-05-05 02:17 | 40.52544 | 113.68158 | 36762 ft | 526 kts | 96° |
| 2026-05-05 02:17 | 40.51844 | 113.77733 | 36745 ft | 527 kts | 96° |
| 2026-05-05 02:18 | 40.51134 | 113.87319 | 36758 ft | 526 kts | 96° |
| 2026-05-05 02:18 | 40.50417 | 113.96891 | 36752 ft | 526 kts | 96° |
| 2026-05-05 02:19 | 40.49804 | 114.06476 | 36753 ft | 527 kts | 94° |
| 2026-05-05 02:19 | 40.49455 | 114.16007 | 36751 ft | 525 kts | 93° |
| 2026-05-05 02:20 | 40.49109 | 114.25589 | 36753 ft | 524 kts | 94° |
| 2026-05-05 02:20 | 40.48712 | 114.35171 | 36751 ft | 525 kts | 94° |
| 2026-05-05 02:21 | 40.48285 | 114.44742 | 36742 ft | 524 kts | 94° |
| 2026-05-05 02:21 | 40.47846 | 114.54286 | 36745 ft | 524 kts | 95° |
| 2026-05-05 02:22 | 40.47401 | 114.63839 | 36738 ft | 524 kts | 95° |
| 2026-05-05 02:22 | 40.46951 | 114.73375 | 36756 ft | 523 kts | 95° |
| 2026-05-05 02:23 | 40.46493 | 114.82922 | 36747 ft | 524 kts | 95° |
| 2026-05-05 02:23 | 40.46027 | 114.92475 | 36747 ft | 524 kts | 95° |
| 2026-05-05 02:24 | 40.45555 | 115.01966 | 36740 ft | 524 kts | 95° |
| 2026-05-05 02:24 | 40.45072 | 115.11506 | 36762 ft | 521 kts | 95° |
| 2026-05-05 02:25 | 40.44585 | 115.21004 | 36757 ft | 521 kts | 95° |
| 2026-05-05 02:25 | 40.44090 | 115.30494 | 36759 ft | 521 kts | 95° |
| 2026-05-05 02:26 | 40.43587 | 115.39978 | 36759 ft | 520 kts | 95° |
| 2026-05-05 02:26 | 40.43078 | 115.49426 | 36760 ft | 519 kts | 95° |
| 2026-05-05 02:27 | 40.42516 | 115.58813 | 36771 ft | 518 kts | 97° |
| 2026-05-05 02:27 | 40.41734 | 115.68219 | 36765 ft | 519 kts | 98° |
| 2026-05-05 02:28 | 40.40918 | 115.77622 | 36773 ft | 519 kts | 98° |
| 2026-05-05 02:28 | 40.40124 | 115.87041 | 36776 ft | 519 kts | 98° |
| 2026-05-05 02:29 | 40.39342 | 115.96453 | 36789 ft | 519 kts | 97° |
| 2026-05-05 02:30 | 40.37819 | 116.14597 | 36789 ft | 518 kts | 98° |
| 2026-05-05 02:30 | 40.37018 | 116.23992 | 36788 ft | 518 kts | 98° |
| 2026-05-05 02:31 | 40.36153 | 116.34029 | 36791 ft | 518 kts | 98° |
| 2026-05-05 02:31 | 40.35337 | 116.43411 | 36794 ft | 518 kts | 98° |
| 2026-05-05 02:32 | 40.34516 | 116.52756 | 36793 ft | 518 kts | 98° |
| 2026-05-05 02:32 | 40.33471 | 116.62090 | 36803 ft | 517 kts | 106° |
| 2026-05-05 02:33 | 40.30627 | 116.70650 | 36795 ft | 513 kts | 127° |
| 2026-05-05 02:33 | 40.28402 | 116.74282 | 36799 ft | 511 kts | 139° |
| 2026-05-05 02:33 | 40.25720 | 116.77313 | 36799 ft | 509 kts | 149° |
| 2026-05-05 02:33 | 40.22677 | 116.79647 | 36799 ft | 506 kts | 161° |
| 2026-05-05 02:34 | 40.19387 | 116.81222 | 36786 ft | 502 kts | 171° |
| 2026-05-05 02:34 | 40.15965 | 116.82007 | 36797 ft | 498 kts | 182° |
| 2026-05-05 02:34 | 40.12523 | 116.82005 | 36800 ft | 493 kts | 192° |
| 2026-05-05 02:35 | 40.05748 | 116.80718 | 36782 ft | 497 kts | 190° |
| 2026-05-05 02:35 | 39.98761 | 116.81137 | 36799 ft | 508 kts | 180° |
| 2026-05-05 02:36 | 39.91650 | 116.82413 | 36792 ft | 508 kts | 177° |
| 2026-05-05 02:36 | 39.84664 | 116.83849 | 36789 ft | 508 kts | 177° |
| 2026-05-05 02:37 | 39.77726 | 116.85272 | 36782 ft | 508 kts | 177° |
| 2026-05-05 02:37 | 39.70703 | 116.86735 | 36791 ft | 508 kts | 176° |
| 2026-05-05 02:38 | 39.63766 | 116.88185 | 36794 ft | 508 kts | 176° |
| 2026-05-05 02:38 | 39.56752 | 116.89639 | 36783 ft | 507 kts | 176° |
| 2026-05-05 02:39 | 39.49808 | 116.91070 | 36796 ft | 508 kts | 176° |
| 2026-05-05 02:39 | 39.42822 | 116.92507 | 36799 ft | 508 kts | 176° |
| 2026-05-05 02:40 | 39.35854 | 116.93937 | 36794 ft | 508 kts | 176° |
| 2026-05-05 02:40 | 39.28872 | 116.95367 | 36796 ft | 508 kts | 176° |
| 2026-05-05 02:41 | 39.23082 | 116.96743 | 36788 ft | 512 kts | 169° |
| 2026-05-05 02:41 | 39.18605 | 116.98924 | 36797 ft | 518 kts | 157° |
| 2026-05-05 02:41 | 39.16543 | 117.00457 | 36802 ft | 519 kts | 150° |
| 2026-05-05 02:41 | 39.13699 | 117.03346 | 36800 ft | 521 kts | 139° |
| 2026-05-05 02:42 | 39.11297 | 117.06833 | 36799 ft | 520 kts | 128° |
| 2026-05-05 02:42 | 39.08102 | 117.15118 | 36804 ft | 517 kts | 107° |
| 2026-05-05 02:43 | 39.07296 | 117.24209 | 36798 ft | 510 kts | 86° |
| 2026-05-05 02:43 | 39.07661 | 117.33257 | 36802 ft | 505 kts | 95° |
| 2026-05-05 02:44 | 39.07390 | 117.42250 | 36818 ft | 505 kts | 89° |
| 2026-05-05 02:44 | 39.07296 | 117.51324 | 36808 ft | 506 kts | 92° |
| 2026-05-05 02:45 | 39.07168 | 117.60381 | 36813 ft | 506 kts | 92° |
| 2026-05-05 02:45 | 39.07049 | 117.69429 | 36816 ft | 506 kts | 92° |
| 2026-05-05 02:46 | 39.06932 | 117.78475 | 36817 ft | 506 kts | 92° |
| 2026-05-05 02:46 | 39.06810 | 117.87470 | 36835 ft | 506 kts | 92° |
| 2026-05-05 02:47 | 39.06679 | 117.96513 | 36826 ft | 506 kts | 92° |
| 2026-05-05 02:47 | 39.06185 | 118.05546 | 36816 ft | 505 kts | 101° |
| 2026-05-05 02:48 | 39.04881 | 118.14443 | 36835 ft | 508 kts | 103° |
| 2026-05-05 02:48 | 39.03445 | 118.23355 | 36835 ft | 508 kts | 103° |
| 2026-05-05 02:49 | 39.02000 | 118.32255 | 36839 ft | 508 kts | 103° |
| 2026-05-05 02:49 | 39.00565 | 118.41155 | 36846 ft | 509 kts | 103° |
| 2026-05-05 02:50 | 38.99130 | 118.50058 | 36848 ft | 509 kts | 103° |
| 2026-05-05 02:50 | 38.97689 | 118.58970 | 36849 ft | 509 kts | 103° |
| 2026-05-05 02:51 | 38.96241 | 118.67866 | 36868 ft | 509 kts | 103° |
| 2026-05-05 02:51 | 38.94793 | 118.76715 | 36855 ft | 508 kts | 103° |
| 2026-05-05 02:52 | 38.93329 | 118.85615 | 36856 ft | 508 kts | 103° |
| 2026-05-05 02:52 | 38.91861 | 118.94501 | 36855 ft | 508 kts | 103° |
| 2026-05-05 02:53 | 38.90388 | 119.03371 | 36855 ft | 507 kts | 103° |
| 2026-05-05 02:53 | 38.88918 | 119.12169 | 36859 ft | 507 kts | 103° |
| 2026-05-05 02:54 | 38.87433 | 119.21010 | 36864 ft | 507 kts | 103° |
| 2026-05-05 02:54 | 38.85940 | 119.29851 | 36868 ft | 507 kts | 103° |
| 2026-05-05 02:55 | 38.84441 | 119.38689 | 36869 ft | 506 kts | 103° |
| 2026-05-05 02:55 | 38.82937 | 119.47510 | 36869 ft | 506 kts | 103° |
| 2026-05-05 02:56 | 38.81428 | 119.56325 | 36875 ft | 506 kts | 103° |
| 2026-05-05 02:56 | 38.79911 | 119.65145 | 36879 ft | 506 kts | 103° |
| 2026-05-05 02:57 | 38.78388 | 119.73950 | 36881 ft | 506 kts | 104° |
| 2026-05-05 02:57 | 38.76869 | 119.82699 | 36883 ft | 506 kts | 104° |
| 2026-05-05 02:58 | 38.75303 | 119.91483 | 36897 ft | 506 kts | 108° |
| 2026-05-05 02:58 | 38.72458 | 119.99669 | 36883 ft | 504 kts | 122° |
| 2026-05-05 02:59 | 38.68791 | 120.07391 | 36893 ft | 509 kts | 124° |
| 2026-05-05 02:59 | 38.64968 | 120.15029 | 36894 ft | 509 kts | 125° |
| 2026-05-05 03:00 | 38.61448 | 120.22843 | 36904 ft | 509 kts | 114° |
| 2026-05-05 03:00 | 38.59473 | 120.31516 | 36913 ft | 507 kts | 104° |
| 2026-05-05 03:01 | 38.58009 | 120.40303 | 36917 ft | 504 kts | 103° |
| 2026-05-05 03:01 | 38.56621 | 120.49047 | 36904 ft | 501 kts | 103° |
| 2026-05-05 03:02 | 38.55215 | 120.57747 | 36905 ft | 500 kts | 103° |
| 2026-05-05 03:02 | 38.53810 | 120.66454 | 36915 ft | 500 kts | 103° |
| 2026-05-05 03:03 | 38.52403 | 120.75145 | 36920 ft | 500 kts | 103° |
| 2026-05-05 03:03 | 38.50983 | 120.83844 | 36922 ft | 500 kts | 103° |
| 2026-05-05 03:04 | 38.49557 | 120.92541 | 36925 ft | 501 kts | 103° |
| 2026-05-05 03:04 | 38.48128 | 121.01194 | 36927 ft | 501 kts | 104° |
| 2026-05-05 03:05 | 38.46679 | 121.09929 | 36924 ft | 500 kts | 104° |
| 2026-05-05 03:05 | 38.45238 | 121.18612 | 36925 ft | 500 kts | 103° |
| 2026-05-05 03:06 | 38.43834 | 121.27249 | 36930 ft | 500 kts | 103° |
| 2026-05-05 03:06 | 38.42439 | 121.35928 | 36929 ft | 500 kts | 103° |
| 2026-05-05 03:07 | 38.41033 | 121.44638 | 36928 ft | 501 kts | 103° |
| 2026-05-05 03:07 | 38.39609 | 121.53325 | 36942 ft | 500 kts | 104° |
| 2026-05-05 03:08 | 38.38154 | 121.62013 | 36936 ft | 501 kts | 103° |
| 2026-05-05 03:08 | 38.36692 | 121.70710 | 36942 ft | 502 kts | 104° |
| 2026-05-05 03:09 | 38.35226 | 121.79406 | 36946 ft | 502 kts | 104° |
| 2026-05-05 03:09 | 38.33757 | 121.88095 | 36955 ft | 502 kts | 104° |
| 2026-05-05 03:10 | 38.32287 | 121.96741 | 36965 ft | 502 kts | 104° |
| 2026-05-05 03:10 | 38.30804 | 122.05430 | 36967 ft | 502 kts | 104° |
| 2026-05-05 03:11 | 38.29315 | 122.14110 | 36970 ft | 503 kts | 104° |
| 2026-05-05 03:11 | 38.27816 | 122.22808 | 36979 ft | 503 kts | 104° |
| 2026-05-05 03:12 | 38.26395 | 122.31535 | 36986 ft | 503 kts | 102° |
| 2026-05-05 03:13 | 38.22206 | 122.47629 | 36992 ft | 499 kts | 128° |
| 2026-05-05 03:13 | 38.17630 | 122.54271 | 36997 ft | 502 kts | 138° |
| 2026-05-05 03:14 | 38.12747 | 122.60466 | 36999 ft | 507 kts | 139° |
| 2026-05-05 03:14 | 38.07831 | 122.66651 | 37004 ft | 508 kts | 139° |
| 2026-05-05 03:15 | 38.02870 | 122.73039 | 37011 ft | 507 kts | 139° |
| 2026-05-05 03:15 | 37.98057 | 122.79297 | 37017 ft | 507 kts | 138° |
| 2026-05-05 03:16 | 37.93067 | 122.85772 | 37024 ft | 508 kts | 139° |
| 2026-05-05 03:16 | 37.88146 | 122.92134 | 37026 ft | 508 kts | 139° |
| 2026-05-05 03:17 | 37.83202 | 122.98508 | 37031 ft | 507 kts | 139° |
| 2026-05-05 03:17 | 37.78258 | 123.04869 | 37035 ft | 508 kts | 139° |
| 2026-05-05 03:18 | 37.73308 | 123.11225 | 37038 ft | 507 kts | 139° |
| 2026-05-05 03:18 | 37.68352 | 123.17574 | 37042 ft | 507 kts | 139° |
| 2026-05-05 03:19 | 37.60930 | 123.27060 | 37050 ft | 506 kts | 140° |
| 2026-05-05 03:19 | 37.56082 | 123.33513 | 37048 ft | 509 kts | 133° |
| 2026-05-05 03:20 | 37.51739 | 123.40573 | 37058 ft | 508 kts | 131° |
| 2026-05-05 03:20 | 37.47499 | 123.47696 | 37061 ft | 508 kts | 131° |
| 2026-05-05 03:21 | 37.43272 | 123.54814 | 37062 ft | 508 kts | 131° |
| 2026-05-05 03:21 | 37.39024 | 123.61929 | 37063 ft | 508 kts | 131° |
| 2026-05-05 03:22 | 37.34793 | 123.68984 | 37067 ft | 508 kts | 131° |
| 2026-05-05 03:22 | 37.30537 | 123.76062 | 37066 ft | 508 kts | 132° |
| 2026-05-05 03:23 | 37.26277 | 123.83134 | 37080 ft | 508 kts | 132° |
| 2026-05-05 03:23 | 37.22003 | 123.90213 | 37079 ft | 508 kts | 132° |
| 2026-05-05 03:24 | 37.18301 | 123.97782 | 37082 ft | 515 kts | 117° |
| 2026-05-05 03:24 | 37.16605 | 124.06515 | 37083 ft | 520 kts | 96° |
| 2026-05-05 03:25 | 37.16690 | 124.15550 | 37095 ft | 516 kts | 90° |
| 2026-05-05 03:25 | 37.17061 | 124.24527 | 37088 ft | 515 kts | 90° |
| 2026-05-05 03:26 | 37.17381 | 124.33436 | 37094 ft | 515 kts | 91° |
| 2026-05-05 03:26 | 37.17600 | 124.42418 | 37093 ft | 515 kts | 91° |
| 2026-05-05 03:27 | 37.17796 | 124.51404 | 37093 ft | 515 kts | 92° |
| 2026-05-05 03:27 | 37.17991 | 124.60386 | 37099 ft | 515 kts | 92° |
| 2026-05-05 03:28 | 37.18186 | 124.69360 | 37105 ft | 515 kts | 92° |
| 2026-05-05 03:28 | 37.18377 | 124.78359 | 37106 ft | 515 kts | 92° |
| 2026-05-05 03:29 | 37.18561 | 124.87337 | 37111 ft | 516 kts | 92° |
| 2026-05-05 03:29 | 37.18736 | 124.96295 | 37107 ft | 516 kts | 92° |
| 2026-05-05 03:30 | 37.18905 | 125.05302 | 37124 ft | 517 kts | 92° |
| 2026-05-05 03:30 | 37.19067 | 125.14316 | 37121 ft | 516 kts | 92° |
| 2026-05-05 03:31 | 37.19223 | 125.23314 | 37116 ft | 516 kts | 92° |
| 2026-05-05 03:31 | 37.19372 | 125.32308 | 37119 ft | 517 kts | 92° |
| 2026-05-05 03:32 | 37.19515 | 125.41336 | 37116 ft | 517 kts | 92° |
| 2026-05-05 03:32 | 37.19650 | 125.50360 | 37116 ft | 517 kts | 92° |
| 2026-05-05 03:33 | 37.19779 | 125.59401 | 37135 ft | 519 kts | 92° |
| 2026-05-05 03:33 | 37.19898 | 125.68445 | 37126 ft | 518 kts | 92° |
| 2026-05-05 03:34 | 37.20011 | 125.77463 | 37131 ft | 517 kts | 92° |
| 2026-05-05 03:34 | 37.20119 | 125.86468 | 37135 ft | 519 kts | 92° |
| 2026-05-05 03:35 | 37.20221 | 125.95527 | 37129 ft | 520 kts | 93° |
| 2026-05-05 03:35 | 37.20316 | 126.04597 | 37129 ft | 519 kts | 93° |
| 2026-05-05 03:36 | 37.20404 | 126.13668 | 37136 ft | 520 kts | 93° |
| 2026-05-05 03:36 | 37.20485 | 126.22730 | 37131 ft | 520 kts | 93° |
| 2026-05-05 03:37 | 37.20560 | 126.31794 | 37138 ft | 521 kts | 93° |
| 2026-05-05 03:37 | 37.20628 | 126.40877 | 37132 ft | 521 kts | 93° |
| 2026-05-05 03:38 | 37.20689 | 126.49987 | 37130 ft | 521 kts | 93° |
| 2026-05-05 03:38 | 37.20741 | 126.59097 | 37125 ft | 523 kts | 93° |
| 2026-05-05 03:39 | 37.20786 | 126.68240 | 37147 ft | 524 kts | 93° |
| 2026-05-05 03:39 | 37.20823 | 126.77357 | 37130 ft | 522 kts | 94° |
| 2026-05-05 03:40 | 37.20855 | 126.86400 | 37129 ft | 523 kts | 94° |
| 2026-05-05 03:40 | 37.21522 | 126.95471 | 37136 ft | 528 kts | 79° |
| 2026-05-05 03:41 | 37.22667 | 126.99854 | 37129 ft | 528 kts | 68° |
| 2026-05-05 03:41 | 37.24397 | 127.03917 | 37135 ft | 527 kts | 58° |
| 2026-05-05 03:41 | 37.28974 | 127.11040 | 37136 ft | 521 kts | 50° |
| 2026-05-05 03:42 | 37.33797 | 127.17798 | 37130 ft | 518 kts | 49° |
| 2026-05-05 03:42 | 37.38635 | 127.24524 | 37117 ft | 518 kts | 49° |
| 2026-05-05 03:43 | 37.43445 | 127.31286 | 37120 ft | 518 kts | 49° |
| 2026-05-05 03:43 | 37.47600 | 127.38578 | 37119 ft | 516 kts | 65° |
| 2026-05-05 03:44 | 37.48951 | 127.42767 | 37115 ft | 515 kts | 76° |
| 2026-05-05 03:44 | 37.49842 | 127.47137 | 37121 ft | 517 kts | 80° |
| 2026-05-05 03:44 | 37.51296 | 127.56046 | 37105 ft | 522 kts | 82° |
| 2026-05-05 03:45 | 37.52656 | 127.65044 | 37102 ft | 522 kts | 82° |
| 2026-05-05 03:45 | 37.54043 | 127.74026 | 37094 ft | 523 kts | 82° |
| 2026-05-05 03:46 | 37.55460 | 127.83032 | 37106 ft | 524 kts | 82° |
| 2026-05-05 03:46 | 37.56878 | 127.92032 | 37079 ft | 522 kts | 82° |
| 2026-05-05 03:47 | 37.58046 | 127.99487 | 37078 ft | 522 kts | 82° |
| 2026-05-05 03:47 | 37.59678 | 128.09967 | 37071 ft | 524 kts | 82° |
| 2026-05-05 03:48 | 37.61076 | 128.19003 | 37084 ft | 524 kts | 82° |
| 2026-05-05 03:48 | 37.62231 | 128.26513 | 37060 ft | 523 kts | 82° |
| 2026-05-05 03:49 | 37.63614 | 128.35534 | 37055 ft | 523 kts | 82° |
| 2026-05-05 03:49 | 37.64986 | 128.44543 | 37047 ft | 523 kts | 82° |
| 2026-05-05 03:50 | 37.66352 | 128.53552 | 37049 ft | 522 kts | 82° |
| 2026-05-05 03:50 | 37.67709 | 128.62555 | 37038 ft | 523 kts | 82° |
| 2026-05-05 03:51 | 37.68454 | 128.71623 | 37026 ft | 517 kts | 97° |
| 2026-05-05 03:51 | 37.66969 | 128.80323 | 37023 ft | 509 kts | 118° |
| 2026-05-05 03:52 | 37.63606 | 128.88151 | 37021 ft | 510 kts | 127° |
| 2026-05-05 03:52 | 37.59862 | 128.95791 | 37023 ft | 514 kts | 128° |
| 2026-05-05 03:53 | 37.56089 | 129.03469 | 37023 ft | 515 kts | 128° |
| 2026-05-05 03:53 | 37.52352 | 129.11173 | 37024 ft | 515 kts | 127° |
| 2026-05-05 03:54 | 37.48627 | 129.18889 | 37021 ft | 516 kts | 127° |
| 2026-05-05 03:54 | 37.44891 | 129.26618 | 37028 ft | 517 kts | 128° |
| 2026-05-05 03:55 | 37.41145 | 129.34348 | 37031 ft | 517 kts | 128° |
| 2026-05-05 03:55 | 37.37393 | 129.42073 | 37035 ft | 518 kts | 128° |
| 2026-05-05 03:56 | 37.33649 | 129.49761 | 37042 ft | 519 kts | 128° |
| 2026-05-05 03:56 | 37.29877 | 129.57489 | 37042 ft | 519 kts | 128° |
| 2026-05-05 03:57 | 37.26101 | 129.65208 | 37049 ft | 520 kts | 128° |
| 2026-05-05 03:57 | 37.22310 | 129.72939 | 37062 ft | 520 kts | 128° |
| 2026-05-05 03:58 | 37.18514 | 129.80665 | 37049 ft | 520 kts | 128° |
| 2026-05-05 03:58 | 37.14710 | 129.88389 | 37074 ft | 521 kts | 129° |
| 2026-05-05 03:59 | 37.10893 | 129.96118 | 37077 ft | 521 kts | 129° |
| 2026-05-05 03:59 | 37.07071 | 130.03839 | 37072 ft | 522 kts | 129° |
| 2026-05-05 04:00 | 37.03257 | 130.11528 | 37086 ft | 523 kts | 129° |
| 2026-05-05 04:00 | 36.99408 | 130.19268 | 37092 ft | 524 kts | 129° |
| 2026-05-05 04:01 | 36.95549 | 130.27011 | 37090 ft | 524 kts | 129° |
| 2026-05-05 04:01 | 36.91673 | 130.34768 | 37099 ft | 525 kts | 129° |
| 2026-05-05 04:02 | 36.87789 | 130.42525 | 37099 ft | 525 kts | 129° |
| 2026-05-05 04:02 | 36.83933 | 130.50210 | 37100 ft | 526 kts | 130° |
| 2026-05-05 04:03 | 36.80043 | 130.57942 | 37115 ft | 527 kts | 130° |
| 2026-05-05 04:03 | 36.76145 | 130.65674 | 37120 ft | 527 kts | 130° |
| 2026-05-05 04:04 | 36.72238 | 130.73410 | 37124 ft | 527 kts | 130° |
| 2026-05-05 04:04 | 36.68326 | 130.81135 | 37125 ft | 527 kts | 130° |
| 2026-05-05 04:05 | 36.64406 | 130.88857 | 37126 ft | 527 kts | 130° |
| 2026-05-05 04:05 | 36.60486 | 130.96564 | 37126 ft | 527 kts | 130° |
| 2026-05-05 04:06 | 36.56583 | 131.04220 | 37126 ft | 527 kts | 130° |
| 2026-05-05 04:06 | 36.52646 | 131.11924 | 37134 ft | 527 kts | 130° |
| 2026-05-05 04:07 | 36.48708 | 131.19615 | 37130 ft | 528 kts | 130° |
| 2026-05-05 04:07 | 36.44757 | 131.27310 | 37133 ft | 528 kts | 130° |
| 2026-05-05 04:08 | 36.40803 | 131.34998 | 37127 ft | 528 kts | 130° |
| 2026-05-05 04:08 | 36.37586 | 131.43290 | 37138 ft | 544 kts | 113° |
| 2026-05-05 04:09 | 36.36808 | 131.47921 | 37142 ft | 551 kts | 101° |
| 2026-05-05 04:09 | 36.36495 | 131.52670 | 37147 ft | 551 kts | 98° |
| 2026-05-05 04:09 | 36.36178 | 131.62134 | 37146 ft | 549 kts | 97° |
| 2026-05-05 04:10 | 36.35943 | 131.71601 | 37150 ft | 548 kts | 97° |
| 2026-05-05 04:10 | 36.35671 | 131.81057 | 37145 ft | 548 kts | 97° |
| 2026-05-05 04:11 | 36.35364 | 131.90502 | 37152 ft | 548 kts | 98° |
| 2026-05-05 04:11 | 36.35043 | 131.99904 | 37136 ft | 549 kts | 98° |
| 2026-05-05 04:12 | 36.34713 | 132.09376 | 37158 ft | 550 kts | 98° |
| 2026-05-05 04:12 | 36.34375 | 132.18869 | 37155 ft | 550 kts | 98° |
| 2026-05-05 04:13 | 36.34031 | 132.28360 | 37156 ft | 550 kts | 98° |
| 2026-05-05 04:13 | 36.33679 | 132.37854 | 37160 ft | 550 kts | 98° |
| 2026-05-05 04:14 | 36.33322 | 132.47310 | 37164 ft | 551 kts | 98° |
| 2026-05-05 04:14 | 36.32954 | 132.56823 | 37159 ft | 552 kts | 98° |
| 2026-05-05 04:15 | 36.32580 | 132.66327 | 37159 ft | 553 kts | 98° |
| 2026-05-05 04:15 | 36.32197 | 132.75813 | 37160 ft | 553 kts | 98° |
| 2026-05-05 04:16 | 36.32004 | 132.80558 | 36916 ft | 551 kts | 98° |
| 2026-05-05 04:16 | 36.31807 | 132.85320 | 36672 ft | 553 kts | 98° |
| 2026-05-05 04:16 | 36.31607 | 132.90076 | 36417 ft | 553 kts | 98° |
| 2026-05-05 04:16 | 36.31404 | 132.94834 | 36167 ft | 552 kts | 98° |
| 2026-05-05 04:17 | 36.31198 | 132.99604 | 35921 ft | 552 kts | 98° |
| 2026-05-05 04:17 | 36.30991 | 133.04343 | 35680 ft | 551 kts | 98° |
| 2026-05-05 04:17 | 36.30784 | 133.09080 | 35438 ft | 550 kts | 98° |
| 2026-05-05 04:17 | 36.30577 | 133.13810 | 35199 ft | 549 kts | 98° |
| 2026-05-05 04:18 | 36.30369 | 133.18530 | 34959 ft | 548 kts | 98° |
| 2026-05-05 04:18 | 36.30162 | 133.23245 | 34723 ft | 547 kts | 98° |
| 2026-05-05 04:18 | 36.29953 | 133.27955 | 34490 ft | 546 kts | 98° |
| 2026-05-05 04:18 | 36.29743 | 133.32655 | 34265 ft | 546 kts | 98° |
| 2026-05-05 04:19 | 36.29532 | 133.37349 | 34004 ft | 546 kts | 98° |
| 2026-05-05 04:19 | 36.29319 | 133.42055 | 33739 ft | 545 kts | 98° |
| 2026-05-05 04:19 | 36.29105 | 133.46739 | 33475 ft | 545 kts | 98° |
| 2026-05-05 04:19 | 36.28890 | 133.51426 | 33203 ft | 545 kts | 98° |
| 2026-05-05 04:20 | 36.28673 | 133.56114 | 32936 ft | 544 kts | 98° |
| 2026-05-05 04:20 | 36.28455 | 133.60791 | 32688 ft | 544 kts | 98° |
| 2026-05-05 04:20 | 36.28236 | 133.65464 | 32414 ft | 544 kts | 98° |
| 2026-05-05 04:20 | 36.28014 | 133.70144 | 32155 ft | 545 kts | 98° |
| 2026-05-05 04:21 | 36.27790 | 133.74831 | 31890 ft | 545 kts | 97° |
| 2026-05-05 04:21 | 36.27566 | 133.79515 | 31664 ft | 544 kts | 97° |
| 2026-05-05 04:21 | 36.27341 | 133.84181 | 31406 ft | 541 kts | 97° |
| 2026-05-05 04:21 | 36.27114 | 133.88832 | 31152 ft | 538 kts | 97° |
| 2026-05-05 04:22 | 36.26888 | 133.93389 | 30914 ft | 535 kts | 97° |
| 2026-05-05 04:22 | 36.26655 | 133.98034 | 30666 ft | 533 kts | 97° |
| 2026-05-05 04:22 | 36.26422 | 134.02608 | 30423 ft | 531 kts | 98° |
| 2026-05-05 04:22 | 36.26189 | 134.07113 | 30186 ft | 529 kts | 97° |
| 2026-05-05 04:23 | 36.25955 | 134.11656 | 29899 ft | 526 kts | 97° |
| 2026-05-05 04:23 | 36.25721 | 134.16159 | 29619 ft | 523 kts | 97° |
| 2026-05-05 04:23 | 36.25486 | 134.20653 | 29331 ft | 520 kts | 97° |
| 2026-05-05 04:23 | 36.25250 | 134.25115 | 29059 ft | 517 kts | 97° |
| 2026-05-05 04:24 | 36.25014 | 134.29547 | 28785 ft | 514 kts | 97° |
| 2026-05-05 04:24 | 36.24778 | 134.33957 | 28517 ft | 511 kts | 97° |
| 2026-05-05 04:24 | 36.24543 | 134.38288 | 28239 ft | 509 kts | 97° |
| 2026-05-05 04:25 | 36.24097 | 134.47019 | 27695 ft | 506 kts | 95° |
| 2026-05-05 04:25 | 36.24249 | 134.51366 | 27440 ft | 505 kts | 85° |
| 2026-05-05 04:25 | 36.24798 | 134.55653 | 27196 ft | 502 kts | 82° |
| 2026-05-05 04:25 | 36.25452 | 134.59905 | 26937 ft | 499 kts | 81° |
| 2026-05-05 04:26 | 36.26147 | 134.64091 | 26679 ft | 496 kts | 80° |
| 2026-05-05 04:26 | 36.26861 | 134.68264 | 26418 ft | 493 kts | 80° |
| 2026-05-05 04:26 | 36.27575 | 134.72413 | 26194 ft | 491 kts | 80° |
| 2026-05-05 04:26 | 36.28280 | 134.76535 | 25943 ft | 488 kts | 80° |
| 2026-05-05 04:27 | 36.28975 | 134.80635 | 25692 ft | 486 kts | 80° |
| 2026-05-05 04:27 | 36.29662 | 134.84726 | 25453 ft | 484 kts | 80° |
| 2026-05-05 04:27 | 36.30341 | 134.88803 | 25243 ft | 483 kts | 80° |
| 2026-05-05 04:27 | 36.31019 | 134.92887 | 25190 ft | 482 kts | 80° |
| 2026-05-05 04:28 | 36.31690 | 134.96947 | 25188 ft | 481 kts | 80° |
| 2026-05-05 04:28 | 36.32361 | 135.01024 | 25187 ft | 481 kts | 80° |
| 2026-05-05 04:28 | 36.33028 | 135.05085 | 25190 ft | 481 kts | 80° |
| 2026-05-05 04:28 | 36.33693 | 135.09148 | 25189 ft | 481 kts | 80° |
| 2026-05-05 04:29 | 36.34356 | 135.13201 | 25190 ft | 481 kts | 80° |
| 2026-05-05 04:29 | 36.35022 | 135.17279 | 25190 ft | 482 kts | 80° |
| 2026-05-05 04:29 | 36.35679 | 135.21304 | 25188 ft | 482 kts | 80° |
| 2026-05-05 04:29 | 36.36340 | 135.25366 | 25190 ft | 482 kts | 80° |
| 2026-05-05 04:30 | 36.37003 | 135.29439 | 25189 ft | 482 kts | 80° |
| 2026-05-05 04:30 | 36.37665 | 135.33523 | 25188 ft | 482 kts | 80° |
| 2026-05-05 04:30 | 36.38324 | 135.37594 | 25188 ft | 482 kts | 80° |
| 2026-05-05 04:30 | 36.38983 | 135.41676 | 25190 ft | 482 kts | 80° |
| 2026-05-05 04:31 | 36.39640 | 135.45759 | 25182 ft | 482 kts | 80° |
| 2026-05-05 04:31 | 36.40295 | 135.49835 | 25189 ft | 483 kts | 80° |
| 2026-05-05 04:31 | 36.40951 | 135.53932 | 25189 ft | 483 kts | 80° |
| 2026-05-05 04:31 | 36.41604 | 135.58014 | 25184 ft | 483 kts | 80° |
| 2026-05-05 04:32 | 36.42257 | 135.62106 | 25179 ft | 483 kts | 80° |
| 2026-05-05 04:32 | 36.42909 | 135.66199 | 25181 ft | 483 kts | 80° |
| 2026-05-05 04:32 | 36.43559 | 135.70293 | 25183 ft | 483 kts | 80° |
| 2026-05-05 04:32 | 36.44209 | 135.74398 | 25178 ft | 484 kts | 80° |
| 2026-05-05 04:33 | 36.44856 | 135.78491 | 25179 ft | 484 kts | 80° |
| 2026-05-05 04:33 | 36.45504 | 135.82593 | 25177 ft | 484 kts | 80° |
| 2026-05-05 04:33 | 36.46148 | 135.86688 | 25180 ft | 484 kts | 80° |
| 2026-05-05 04:33 | 36.46794 | 135.90800 | 25179 ft | 484 kts | 80° |
| 2026-05-05 04:34 | 36.47428 | 135.94849 | 25179 ft | 484 kts | 80° |
| 2026-05-05 04:34 | 36.48077 | 135.99006 | 25179 ft | 484 kts | 80° |
| 2026-05-05 04:34 | 36.48709 | 136.03057 | 25178 ft | 484 kts | 80° |
| 2026-05-05 04:34 | 36.49348 | 136.07168 | 25177 ft | 484 kts | 80° |
| 2026-05-05 04:35 | 36.49983 | 136.11261 | 25177 ft | 484 kts | 80° |
| 2026-05-05 04:35 | 36.50620 | 136.15384 | 25178 ft | 484 kts | 80° |
| 2026-05-05 04:35 | 36.51256 | 136.19501 | 25180 ft | 484 kts | 80° |
| 2026-05-05 04:35 | 36.51890 | 136.23612 | 25180 ft | 484 kts | 80° |
| 2026-05-05 04:36 | 36.52308 | 136.26335 | 25181 ft | 484 kts | 80° |
| 2026-05-05 04:36 | 36.53152 | 136.31832 | 25180 ft | 484 kts | 81° |
| 2026-05-05 04:36 | 36.53570 | 136.34560 | 25180 ft | 484 kts | 81° |
| 2026-05-05 04:36 | 36.54199 | 136.38677 | 25181 ft | 484 kts | 81° |
| 2026-05-05 04:37 | 36.54824 | 136.42780 | 25181 ft | 484 kts | 81° |
| 2026-05-05 04:37 | 36.55449 | 136.46897 | 25180 ft | 484 kts | 81° |
| 2026-05-05 04:37 | 36.56072 | 136.51007 | 25179 ft | 484 kts | 81° |
| 2026-05-05 04:37 | 36.56694 | 136.55123 | 25168 ft | 484 kts | 81° |
| 2026-05-05 04:38 | 36.57314 | 136.59236 | 25166 ft | 484 kts | 81° |
| 2026-05-05 04:38 | 36.57933 | 136.63348 | 25164 ft | 484 kts | 81° |
| 2026-05-05 04:38 | 36.58549 | 136.67458 | 25161 ft | 484 kts | 81° |
| 2026-05-05 04:38 | 36.59167 | 136.71585 | 25165 ft | 484 kts | 81° |
| 2026-05-05 04:39 | 36.59783 | 136.75709 | 25161 ft | 485 kts | 81° |
| 2026-05-05 04:39 | 36.60398 | 136.79839 | 25157 ft | 485 kts | 81° |
| 2026-05-05 04:39 | 36.61013 | 136.83971 | 25157 ft | 485 kts | 81° |
| 2026-05-05 04:39 | 36.61626 | 136.88104 | 25161 ft | 485 kts | 81° |
| 2026-05-05 04:40 | 36.62235 | 136.92227 | 25158 ft | 485 kts | 81° |
| 2026-05-05 04:40 | 36.62845 | 136.96357 | 25157 ft | 485 kts | 81° |
| 2026-05-05 04:40 | 36.63448 | 137.00494 | 25157 ft | 485 kts | 81° |
| 2026-05-05 04:40 | 36.64045 | 137.04635 | 25156 ft | 485 kts | 81° |
| 2026-05-05 04:41 | 36.64630 | 137.08719 | 25156 ft | 485 kts | 81° |
| 2026-05-05 04:41 | 36.65220 | 137.12859 | 25157 ft | 485 kts | 81° |
| 2026-05-05 04:41 | 36.65809 | 137.16993 | 25157 ft | 485 kts | 81° |
| 2026-05-05 04:41 | 36.66399 | 137.21141 | 25160 ft | 485 kts | 81° |
| 2026-05-05 04:42 | 36.66987 | 137.25279 | 25156 ft | 485 kts | 81° |
| 2026-05-05 04:42 | 36.67575 | 137.29419 | 25146 ft | 484 kts | 81° |
| 2026-05-05 04:42 | 36.68160 | 137.33560 | 25154 ft | 485 kts | 81° |
| 2026-05-05 04:42 | 36.68745 | 137.37707 | 25161 ft | 485 kts | 81° |
| 2026-05-05 04:43 | 36.69327 | 137.41849 | 25157 ft | 486 kts | 81° |
| 2026-05-05 04:43 | 36.69909 | 137.45994 | 25162 ft | 486 kts | 81° |
| 2026-05-05 04:43 | 36.70490 | 137.50141 | 25167 ft | 486 kts | 81° |
| 2026-05-05 04:43 | 36.71062 | 137.54227 | 25163 ft | 485 kts | 81° |
| 2026-05-05 04:44 | 36.71640 | 137.58366 | 25165 ft | 485 kts | 81° |
| 2026-05-05 04:44 | 36.72217 | 137.62510 | 25161 ft | 485 kts | 82° |
| 2026-05-05 04:44 | 36.72791 | 137.66653 | 25172 ft | 485 kts | 81° |
| 2026-05-05 04:44 | 36.73360 | 137.70787 | 25167 ft | 484 kts | 81° |
| 2026-05-05 04:45 | 36.73930 | 137.74926 | 25171 ft | 484 kts | 81° |
| 2026-05-05 04:45 | 36.74499 | 137.79069 | 25167 ft | 484 kts | 81° |
| 2026-05-05 04:45 | 36.75067 | 137.83211 | 25171 ft | 484 kts | 81° |
| 2026-05-05 04:45 | 36.75636 | 137.87356 | 25165 ft | 484 kts | 81° |
| 2026-05-05 04:46 | 36.76201 | 137.91493 | 25166 ft | 485 kts | 81° |
| 2026-05-05 04:46 | 36.76764 | 137.95635 | 25160 ft | 485 kts | 81° |
| 2026-05-05 04:46 | 36.77327 | 137.99793 | 25168 ft | 484 kts | 81° |
| 2026-05-05 04:46 | 36.77887 | 138.03936 | 25173 ft | 484 kts | 81° |
| 2026-05-05 04:47 | 36.78438 | 138.08028 | 25167 ft | 484 kts | 81° |
| 2026-05-05 04:47 | 36.78995 | 138.12174 | 25177 ft | 485 kts | 81° |
| 2026-05-05 04:47 | 36.79563 | 138.16327 | 25167 ft | 486 kts | 81° |
| 2026-05-05 04:47 | 36.80135 | 138.20476 | 25177 ft | 486 kts | 81° |
| 2026-05-05 04:48 | 36.80710 | 138.24633 | 25175 ft | 486 kts | 81° |
| 2026-05-05 04:48 | 36.81285 | 138.28800 | 25171 ft | 486 kts | 81° |
| 2026-05-05 04:48 | 36.81857 | 138.32965 | 25172 ft | 486 kts | 81° |
| 2026-05-05 04:48 | 36.82426 | 138.37120 | 25174 ft | 486 kts | 81° |
| 2026-05-05 04:49 | 36.82991 | 138.41285 | 25178 ft | 486 kts | 81° |
| 2026-05-05 04:49 | 36.83554 | 138.45454 | 25173 ft | 487 kts | 81° |
| 2026-05-05 04:49 | 36.84118 | 138.49636 | 25168 ft | 487 kts | 81° |
| 2026-05-05 04:49 | 36.84674 | 138.53802 | 25167 ft | 488 kts | 81° |
| 2026-05-05 04:50 | 36.85228 | 138.57989 | 25179 ft | 488 kts | 81° |
| 2026-05-05 04:50 | 36.85771 | 138.62119 | 25169 ft | 488 kts | 81° |
| 2026-05-05 04:50 | 36.86321 | 138.66316 | 25187 ft | 489 kts | 81° |
| 2026-05-05 04:50 | 36.86868 | 138.70506 | 25173 ft | 489 kts | 81° |
| 2026-05-05 04:51 | 36.87415 | 138.74693 | 25184 ft | 490 kts | 81° |
| 2026-05-05 04:51 | 36.87963 | 138.78899 | 25179 ft | 490 kts | 81° |
| 2026-05-05 04:51 | 36.88510 | 138.83105 | 25171 ft | 490 kts | 81° |
| 2026-05-05 04:51 | 36.89055 | 138.87307 | 25199 ft | 490 kts | 81° |
| 2026-05-05 04:52 | 36.89600 | 138.91516 | 25179 ft | 490 kts | 81° |
| 2026-05-05 04:52 | 36.90143 | 138.95726 | 25178 ft | 491 kts | 81° |
| 2026-05-05 04:52 | 36.90687 | 138.99944 | 25178 ft | 491 kts | 81° |
| 2026-05-05 04:52 | 36.91228 | 139.04160 | 25178 ft | 491 kts | 81° |
| 2026-05-05 04:53 | 36.91765 | 139.08365 | 25181 ft | 491 kts | 81° |
| 2026-05-05 04:53 | 36.92306 | 139.12580 | 25184 ft | 491 kts | 81° |
| 2026-05-05 04:53 | 36.92855 | 139.16804 | 25177 ft | 492 kts | 81° |
| 2026-05-05 04:53 | 36.93408 | 139.21032 | 25177 ft | 492 kts | 81° |
| 2026-05-05 04:54 | 36.93952 | 139.25191 | 25179 ft | 492 kts | 81° |
| 2026-05-05 04:54 | 36.94500 | 139.29414 | 25181 ft | 492 kts | 81° |
| 2026-05-05 04:54 | 36.95046 | 139.33637 | 25185 ft | 492 kts | 81° |
| 2026-05-05 04:54 | 36.95589 | 139.37867 | 25183 ft | 492 kts | 81° |
| 2026-05-05 04:55 | 36.96132 | 139.42106 | 25182 ft | 493 kts | 81° |
| 2026-05-05 04:55 | 36.96672 | 139.46340 | 25181 ft | 493 kts | 81° |
| 2026-05-05 04:55 | 36.97210 | 139.50567 | 25181 ft | 493 kts | 81° |
| 2026-05-05 04:55 | 36.97748 | 139.54801 | 25185 ft | 493 kts | 81° |
| 2026-05-05 04:56 | 36.98284 | 139.59035 | 25180 ft | 493 kts | 81° |
| 2026-05-05 04:56 | 36.98817 | 139.63266 | 25179 ft | 494 kts | 81° |
| 2026-05-05 04:56 | 36.99350 | 139.67504 | 25179 ft | 494 kts | 81° |
| 2026-05-05 04:56 | 36.99882 | 139.71752 | 25174 ft | 494 kts | 81° |
| 2026-05-05 04:57 | 37.00415 | 139.76002 | 25186 ft | 494 kts | 81° |
| 2026-05-05 04:57 | 37.00944 | 139.80240 | 25179 ft | 494 kts | 82° |
| 2026-05-05 04:57 | 37.01472 | 139.84489 | 25169 ft | 494 kts | 82° |
| 2026-05-05 04:57 | 37.01993 | 139.88688 | 25169 ft | 494 kts | 82° |
| 2026-05-05 04:58 | 37.02518 | 139.92928 | 25169 ft | 493 kts | 82° |
| 2026-05-05 04:58 | 37.03010 | 139.96914 | 25170 ft | 493 kts | 82° |
| 2026-05-05 04:58 | 37.03530 | 140.01143 | 25166 ft | 494 kts | 82° |
| 2026-05-05 04:58 | 37.04050 | 140.05389 | 25164 ft | 494 kts | 82° |
| 2026-05-05 04:59 | 37.04570 | 140.09651 | 25161 ft | 494 kts | 82° |
| 2026-05-05 04:59 | 37.05088 | 140.13908 | 25162 ft | 494 kts | 82° |
| 2026-05-05 04:59 | 37.05604 | 140.18162 | 25161 ft | 495 kts | 82° |
| 2026-05-05 04:59 | 37.06118 | 140.22416 | 25163 ft | 495 kts | 82° |
| 2026-05-05 05:00 | 37.06632 | 140.26683 | 25161 ft | 496 kts | 82° |
| 2026-05-05 05:00 | 37.07148 | 140.30976 | 25161 ft | 496 kts | 82° |
| 2026-05-05 05:00 | 37.07654 | 140.35192 | 25161 ft | 496 kts | 82° |
| 2026-05-05 05:00 | 37.08167 | 140.39476 | 25159 ft | 496 kts | 82° |
| 2026-05-05 05:01 | 37.08676 | 140.43750 | 25169 ft | 496 kts | 82° |
| 2026-05-05 05:01 | 37.09184 | 140.48016 | 25161 ft | 496 kts | 82° |
| 2026-05-05 05:01 | 37.09556 | 140.52309 | 25163 ft | 496 kts | 88° |
| 2026-05-05 05:01 | 37.09426 | 140.56617 | 25165 ft | 495 kts | 99° |
| 2026-05-05 05:02 | 37.08693 | 140.60825 | 25166 ft | 494 kts | 111° |
| 2026-05-05 05:02 | 37.07345 | 140.64780 | 25175 ft | 492 kts | 123° |
| 2026-05-05 05:02 | 37.05480 | 140.68331 | 25175 ft | 483 kts | 134° |
| 2026-05-05 05:02 | 37.03210 | 140.71299 | 25173 ft | 458 kts | 146° |
| 2026-05-05 05:03 | 37.00704 | 140.73557 | 25170 ft | 432 kts | 158° |
| 2026-05-05 05:03 | 36.98082 | 140.75162 | 25166 ft | 407 kts | 168° |
| 2026-05-05 05:03 | 36.95491 | 140.76171 | 25170 ft | 382 kts | 178° |
| 2026-05-05 05:03 | 36.92912 | 140.76683 | 25173 ft | 358 kts | 186° |
| 2026-05-05 05:04 | 36.90532 | 140.76747 | 25171 ft | 335 kts | 194° |
| 2026-05-05 05:04 | 36.88293 | 140.76452 | 25170 ft | 312 kts | 202° |
| 2026-05-05 05:04 | 36.86248 | 140.75868 | 25169 ft | 290 kts | 210° |
| 2026-05-05 05:04 | 36.84403 | 140.75058 | 25173 ft | 275 kts | 216° |
| 2026-05-05 05:05 | 36.82708 | 140.74033 | 25179 ft | 268 kts | 222° |
| 2026-05-05 05:05 | 36.81091 | 140.72877 | 25179 ft | 269 kts | 222° |
| 2026-05-05 05:05 | 36.79414 | 140.71795 | 25177 ft | 273 kts | 218° |
| 2026-05-05 05:05 | 36.77646 | 140.70869 | 25194 ft | 278 kts | 213° |
| 2026-05-05 05:06 | 36.75850 | 140.70079 | 25198 ft | 278 kts | 212° |
| 2026-05-05 05:06 | 36.74003 | 140.69332 | 25179 ft | 279 kts | 211° |
| 2026-05-05 05:06 | 36.72150 | 140.68620 | 25120 ft | 279 kts | 211° |
| 2026-05-05 05:06 | 36.70285 | 140.67918 | 25067 ft | 279 kts | 210° |
| 2026-05-05 05:07 | 36.68428 | 140.67224 | 25016 ft | 279 kts | 210° |
| 2026-05-05 05:07 | 36.66569 | 140.66526 | 24927 ft | 279 kts | 210° |
| 2026-05-05 05:07 | 36.64708 | 140.65823 | 24785 ft | 280 kts | 210° |
| 2026-05-05 05:07 | 36.62843 | 140.65114 | 24562 ft | 280 kts | 210° |
| 2026-05-05 05:08 | 36.60984 | 140.64407 | 24315 ft | 280 kts | 210° |
| 2026-05-05 05:08 | 36.59123 | 140.63700 | 24080 ft | 280 kts | 210° |
| 2026-05-05 05:08 | 36.57262 | 140.62993 | 23876 ft | 279 kts | 210° |
| 2026-05-05 05:08 | 36.55412 | 140.62292 | 23720 ft | 277 kts | 210° |
| 2026-05-05 05:09 | 36.53558 | 140.61618 | 23599 ft | 277 kts | 209° |
| 2026-05-05 05:09 | 36.51705 | 140.60966 | 23450 ft | 276 kts | 209° |
| 2026-05-05 05:09 | 36.49867 | 140.60302 | 23297 ft | 275 kts | 210° |
| 2026-05-05 05:09 | 36.48033 | 140.59625 | 23111 ft | 274 kts | 210° |
| 2026-05-05 05:10 | 36.46207 | 140.58943 | 22901 ft | 273 kts | 210° |
| 2026-05-05 05:10 | 36.44412 | 140.58268 | 22678 ft | 272 kts | 210° |
| 2026-05-05 05:10 | 36.42604 | 140.57586 | 22448 ft | 271 kts | 210° |
| 2026-05-05 05:10 | 36.40795 | 140.56902 | 22188 ft | 270 kts | 210° |
| 2026-05-05 05:11 | 36.38999 | 140.56223 | 21926 ft | 269 kts | 210° |
| 2026-05-05 05:11 | 36.37183 | 140.55603 | 21659 ft | 273 kts | 205° |
| 2026-05-05 05:11 | 36.35272 | 140.55285 | 21392 ft | 281 kts | 194° |
| 2026-05-05 05:11 | 36.33320 | 140.55408 | 21330 ft | 284 kts | 183° |
| 2026-05-05 05:12 | 36.31377 | 140.55982 | 21271 ft | 291 kts | 172° |
| 2026-05-05 05:12 | 36.29511 | 140.57026 | 21216 ft | 298 kts | 159° |
| 2026-05-05 05:12 | 36.27806 | 140.58532 | 21163 ft | 304 kts | 146° |
| 2026-05-05 05:12 | 36.26349 | 140.60455 | 21106 ft | 308 kts | 133° |
| 2026-05-05 05:13 | 36.25041 | 140.62539 | 21034 ft | 305 kts | 135° |
| 2026-05-05 05:13 | 36.23676 | 140.64538 | 20898 ft | 302 kts | 139° |
| 2026-05-05 05:13 | 36.22272 | 140.66471 | 20697 ft | 302 kts | 139° |
| 2026-05-05 05:13 | 36.20852 | 140.68390 | 20544 ft | 302 kts | 141° |
| 2026-05-05 05:14 | 36.19429 | 140.70291 | 20476 ft | 301 kts | 141° |
| 2026-05-05 05:14 | 36.18002 | 140.72189 | 20480 ft | 300 kts | 141° |
| 2026-05-05 05:14 | 36.16580 | 140.74074 | 20492 ft | 300 kts | 141° |
| 2026-05-05 05:14 | 36.15175 | 140.75936 | 20504 ft | 300 kts | 141° |
| 2026-05-05 05:15 | 36.13730 | 140.77785 | 20516 ft | 297 kts | 145° |
| 2026-05-05 05:15 | 36.12134 | 140.79348 | 20491 ft | 289 kts | 158° |
| 2026-05-05 05:15 | 36.10416 | 140.80401 | 20269 ft | 282 kts | 170° |
| 2026-05-05 05:16 | 36.09237 | 140.80948 | 19970 ft | 282 kts | 171° |
| 2026-05-05 05:16 | 36.07377 | 140.81752 | 19584 ft | 283 kts | 171° |
| 2026-05-05 05:16 | 36.05522 | 140.82556 | 19250 ft | 281 kts | 171° |
| 2026-05-05 05:16 | 36.03682 | 140.83361 | 18921 ft | 280 kts | 170° |
| 2026-05-05 05:17 | 36.01854 | 140.84165 | 18582 ft | 279 kts | 170° |
| 2026-05-05 05:17 | 36.00028 | 140.84969 | 18218 ft | 278 kts | 169° |
| 2026-05-05 05:17 | 35.98213 | 140.85768 | 17855 ft | 276 kts | 169° |
| 2026-05-05 05:17 | 35.96415 | 140.86562 | 17495 ft | 275 kts | 169° |
| 2026-05-05 05:18 | 35.94616 | 140.87355 | 17142 ft | 273 kts | 169° |
| 2026-05-05 05:18 | 35.92833 | 140.88142 | 16806 ft | 272 kts | 169° |
| 2026-05-05 05:18 | 35.91042 | 140.88931 | 16392 ft | 273 kts | 169° |
| 2026-05-05 05:18 | 35.89264 | 140.89715 | 16098 ft | 270 kts | 169° |
| 2026-05-05 05:19 | 35.87499 | 140.90494 | 15829 ft | 268 kts | 168° |
| 2026-05-05 05:19 | 35.85744 | 140.91268 | 15554 ft | 267 kts | 168° |
| 2026-05-05 05:19 | 35.84000 | 140.92035 | 15191 ft | 265 kts | 168° |
| 2026-05-05 05:19 | 35.82044 | 140.92715 | 13323 ft | 320 kts | 176° |
| 2026-05-05 05:20 | 35.79672 | 140.92917 | 11168 ft | 364 kts | 189° |
| 2026-05-05 05:20 | 35.77102 | 140.92099 | 8657 ft | 402 kts | 210° |
| 2026-05-05 05:20 | 35.74754 | 140.90504 | 8096 ft | 376 kts | 208° |
| 2026-05-05 05:20 | 35.72240 | 140.89560 | 7086 ft | 381 kts | 195° |
| 2026-05-05 05:21 | 35.69710 | 140.88719 | 6377 ft | 372 kts | 201° |
| 2026-05-05 05:21 | 35.67336 | 140.87515 | 5536 ft | 367 kts | 208° |
| 2026-05-05 05:21 | 35.65112 | 140.86056 | 4999 ft | 355 kts | 213° |
| 2026-05-05 05:21 | 35.63060 | 140.84513 | 4783 ft | 334 kts | 216° |
| 2026-05-05 05:22 | 35.61806 | 140.83500 | 4763 ft | 317 kts | 218° |
| 2026-05-05 05:22 | 35.59526 | 140.81565 | 4762 ft | 286 kts | 220° |
| 2026-05-05 05:22 | 35.57958 | 140.80208 | 4763 ft | 265 kts | 220° |
| 2026-05-05 05:22 | 35.56503 | 140.78955 | 4758 ft | 246 kts | 220° |
| 2026-05-05 05:23 | 35.55150 | 140.77795 | 4750 ft | 228 kts | 220° |
| 2026-05-05 05:23 | 35.54309 | 140.77037 | 4756 ft | 216 kts | 223° |
| 2026-05-05 05:23 | 35.53308 | 140.75773 | 4753 ft | 200 kts | 242° |
| 2026-05-05 05:23 | 35.52724 | 140.74256 | 4764 ft | 195 kts | 262° |
| 2026-05-05 05:24 | 35.52555 | 140.72623 | 4759 ft | 194 kts | 274° |
| 2026-05-05 05:24 | 35.52542 | 140.70986 | 4757 ft | 195 kts | 276° |
| 2026-05-05 05:24 | 35.52539 | 140.69320 | 4765 ft | 196 kts | 276° |
| 2026-05-05 05:24 | 35.52532 | 140.67646 | 4757 ft | 196 kts | 276° |
| 2026-05-05 05:25 | 35.52520 | 140.65966 | 4766 ft | 197 kts | 275° |
| 2026-05-05 05:25 | 35.52504 | 140.64286 | 4762 ft | 197 kts | 274° |
| 2026-05-05 05:25 | 35.52487 | 140.62614 | 4762 ft | 196 kts | 274° |
| 2026-05-05 05:25 | 35.52467 | 140.60946 | 4757 ft | 195 kts | 274° |
| 2026-05-05 05:26 | 35.52448 | 140.59287 | 4744 ft | 194 kts | 274° |
| 2026-05-05 05:26 | 35.52428 | 140.57628 | 4722 ft | 193 kts | 275° |
| 2026-05-05 05:26 | 35.52525 | 140.56017 | 4644 ft | 183 kts | 291° |
| 2026-05-05 05:26 | 35.53223 | 140.54847 | 4608 ft | 161 kts | 322° |
| 2026-05-05 05:27 | 35.54085 | 140.54045 | 4486 ft | 153 kts | 329° |
| 2026-05-05 05:27 | 35.54983 | 140.53342 | 4299 ft | 153 kts | 332° |
| 2026-05-05 05:27 | 35.56807 | 140.52004 | 3948 ft | 152 kts | 334° |
| 2026-05-05 05:28 | 35.57728 | 140.51356 | 3794 ft | 154 kts | 332° |
| 2026-05-05 05:28 | 35.58740 | 140.50716 | 3299 ft | 166 kts | 333° |
| 2026-05-05 05:28 | 35.59706 | 140.50011 | 3161 ft | 158 kts | 330° |
| 2026-05-05 05:28 | 35.60626 | 140.49287 | 3035 ft | 157 kts | 330° |
| 2026-05-05 05:29 | 35.61536 | 140.48567 | 2838 ft | 157 kts | 330° |
| 2026-05-05 05:29 | 35.62465 | 140.47848 | 2613 ft | 158 kts | 332° |
| 2026-05-05 05:29 | 35.63410 | 140.47141 | 2407 ft | 160 kts | 333° |
| 2026-05-05 05:29 | 35.64378 | 140.46432 | 2167 ft | 163 kts | 333° |
| 2026-05-05 05:30 | 35.65357 | 140.45719 | 1984 ft | 164 kts | 335° |
| 2026-05-05 05:30 | 35.66336 | 140.45006 | 1776 ft | 163 kts | 334° |
| 2026-05-05 05:30 | 35.67313 | 140.44292 | 1724 ft | 164 kts | 334° |
| 2026-05-05 05:30 | 35.68286 | 140.43570 | 1540 ft | 164 kts | 333° |
| 2026-05-05 05:31 | 35.69271 | 140.42834 | 1330 ft | 167 kts | 335° |
| 2026-05-05 05:31 | 35.70273 | 140.42107 | 1125 ft | 167 kts | 334° |
| 2026-05-05 05:31 | 35.71267 | 140.41382 | 917 ft | 168 kts | 335° |
| 2026-05-05 05:31 | 35.72284 | 140.40636 | 736 ft | 170 kts | 334° |
| 2026-05-05 05:32 | 35.73283 | 140.39908 | 458 ft | 164 kts | 332° |
| 2026-05-05 05:32 | 35.74222 | 140.39148 | 237 ft | 163 kts | 332° |
| 2026-05-05 05:32 | 35.75198 | 140.38426 | 148 ft | 164 kts | 336° |
| 2026-05-05 05:32 | 35.76001 | 140.37878 | 146 ft | 79 kts | 329° |
| 2026-05-05 05:33 | 35.76244 | 140.37698 | 144 ft | 16 kts | 329° |
| 2026-05-05 05:33 | 35.76381 | 140.37596 | 145 ft | 29 kts | 326° |
| 2026-05-05 05:33 | 35.76545 | 140.37487 | 145 ft | 24 kts | 344° |
| 2026-05-05 05:33 | 35.76655 | 140.37480 | 146 ft | 20 kts | 353° |
| 2026-05-05 05:34 | 35.76714 | 140.37473 | 147 ft | 0 kts | 355° |
| 2026-05-05 05:34 | 35.76724 | 140.37472 | 149 ft | 10 kts | 355° |
| 2026-05-05 05:34 | 35.76808 | 140.37502 | 149 ft | 9 kts | 48° |
| 2026-05-05 05:34 | 35.76854 | 140.37595 | 151 ft | 14 kts | 90° |
| 2026-05-05 05:35 | 35.76785 | 140.37687 | 151 ft | 19 kts | 148° |
| 2026-05-05 05:35 | 35.76651 | 140.37784 | 151 ft | 16 kts | 149° |
| 2026-05-05 05:35 | 35.76620 | 140.37806 | 151 ft | 10 kts | 150° |
| 2026-05-05 05:35 | 35.76530 | 140.37871 | 151 ft | 20 kts | 149° |
| 2026-05-05 05:36 | 35.76451 | 140.37952 | 151 ft | 10 kts | 114° |
| 2026-05-05 05:36 | 35.76400 | 140.38075 | 155 ft | 21 kts | 137° |
| 2026-05-05 05:36 | 35.76358 | 140.38112 | 152 ft | 15 kts | 146° |
| 2026-05-05 05:36 | 35.76212 | 140.38220 | 152 ft | 33 kts | 149° |
| 2026-05-05 05:37 | 35.76067 | 140.38326 | 152 ft | 26 kts | 149° |
| 2026-05-05 05:37 | 35.75916 | 140.38431 | 152 ft | 27 kts | 149° |
| 2026-05-05 05:37 | 35.75773 | 140.38531 | 152 ft | 26 kts | 149° |
| 2026-05-05 05:37 | 35.75712 | 140.38578 | 152 ft | 0 kts | 146° |
| 2026-05-05 05:38 | 35.75661 | 140.38614 | 152 ft | 19 kts | 153° |
| 2026-05-05 05:38 | 35.75613 | 140.38704 | 153 ft | 13 kts | 81° |
| 2026-05-05 05:38 | 35.75678 | 140.38846 | 153 ft | 16 kts | 39° |
| 2026-05-05 05:38 | 35.75773 | 140.38841 | 153 ft | 21 kts | 341° |
| 2026-05-05 05:39 | 35.75856 | 140.38847 | 153 ft | 0 kts | 14° |
| 2026-05-05 05:39 | 35.75863 | 140.38850 | 153 ft | 8 kts | 18° |
| 2026-05-05 05:39 | 35.75954 | 140.38894 | 153 ft | 1 kts | 22° |
| 2026-05-05 05:39 | 35.75986 | 140.38857 | 153 ft | 12 kts | 285° |
| 2026-05-05 05:40 | 35.75976 | 140.38782 | 153 ft | 0 kts | 256° |
| 2026-05-05 05:40 | 35.75973 | 140.38766 | 153 ft | 0 kts | 256° |
| 2026-05-05 05:40 | 35.75972 | 140.38765 | 153 ft | 0 kts | 256° |
| 2026-05-05 05:41 | 35.75971 | 140.38760 | 153 ft | 4 kts | 256° |
| 2026-05-05 05:41 | 35.75971 | 140.38757 | 153 ft | 0 kts | 256° |
| 2026-05-05 05:42 | 35.76029 | 140.38725 | 153 ft | 0 kts | 236° |